<?xml version='1.0' encoding='UTF-8'?><gpx version="1.1" creator="JPX - https://github.com/jenetics/jpx" xmlns="http://www.topografix.com/GPX/1/1"><trk><trkseg><trkpt lat="44.8853241" lon="11.4183637"><ele>14.0</ele><time>2026-05-04T17:08:15.425Z</time></trkpt><trkpt lat="44.8853118" lon="11.4182758"><ele>14.0</ele><time>2026-05-04T17:08:46.536Z</time></trkpt><trkpt lat="44.8853025" lon="11.4181741"><ele>14.0</ele><time>2026-05-04T17:08:49.409Z</time></trkpt><trkpt lat="44.8852875" lon="11.4180845"><ele>14.0</ele><time>2026-05-04T17:08:51.457Z</time></trkpt><trkpt lat="44.8852399" lon="11.4180222"><ele>14.0</ele><time>2026-05-04T17:08:53.429Z</time></trkpt><trkpt lat="44.8851728" lon="11.4180229"><ele>14.0</ele><time>2026-05-04T17:08:55.423Z</time></trkpt><trkpt lat="44.8851225" lon="11.4181306"><ele>14.0</ele><time>2026-05-04T17:08:58.439Z</time></trkpt><trkpt lat="44.8851099" lon="11.4182648"><ele>14.0</ele><time>2026-05-04T17:09:01.423Z</time></trkpt><trkpt lat="44.885112" lon="11.4183685"><ele>14.0</ele><time>2026-05-04T17:09:03.432Z</time></trkpt><trkpt lat="44.8851215" lon="11.4184591"><ele>14.0</ele><time>2026-05-04T17:09:05.433Z</time></trkpt><trkpt lat="44.8851199" lon="11.418556"><ele>14.0</ele><time>2026-05-04T17:09:07.436Z</time></trkpt><trkpt lat="44.885115" lon="11.4186653"><ele>14.0</ele><time>2026-05-04T17:09:10.408Z</time></trkpt><trkpt lat="44.8851061" lon="11.4187584"><ele>14.0</ele><time>2026-05-04T17:09:12.417Z</time></trkpt><trkpt lat="44.8851037" lon="11.418876"><ele>14.0</ele><time>2026-05-04T17:09:15.442Z</time></trkpt><trkpt lat="44.8851063" lon="11.4190012"><ele>14.166666666666668</ele><time>2026-05-04T17:09:18.423Z</time></trkpt><trkpt lat="44.8850842" lon="11.4191083"><ele>14.333333333333334</ele><time>2026-05-04T17:09:20.435Z</time></trkpt><trkpt lat="44.8850623" lon="11.4192466"><ele>14.5</ele><time>2026-05-04T17:09:22.421Z</time></trkpt><trkpt lat="44.8850658" lon="11.4193785"><ele>14.666666666666668</ele><time>2026-05-04T17:09:24.435Z</time></trkpt><trkpt lat="44.8850827" lon="11.419501"><ele>14.833333333333334</ele><time>2026-05-04T17:09:26.428Z</time></trkpt><trkpt lat="44.8851224" lon="11.4195835"><ele>15.0</ele><time>2026-05-04T17:09:28.416Z</time></trkpt><trkpt lat="44.8851875" lon="11.4196397"><ele>15.0</ele><time>2026-05-04T17:09:30.401Z</time></trkpt><trkpt lat="44.8852557" lon="11.419683"><ele>15.0</ele><time>2026-05-04T17:09:32.404Z</time></trkpt><trkpt lat="44.8853251" lon="11.4197513"><ele>15.0</ele><time>2026-05-04T17:09:34.429Z</time></trkpt><trkpt lat="44.885389" lon="11.4198343"><ele>15.0</ele><time>2026-05-04T17:09:36.444Z</time></trkpt><trkpt lat="44.8854395" lon="11.4199337"><ele>15.0</ele><time>2026-05-04T17:09:39.439Z</time></trkpt><trkpt lat="44.8854894" lon="11.4200003"><ele>15.0</ele><time>2026-05-04T17:09:41.456Z</time></trkpt><trkpt lat="44.8855545" lon="11.420072"><ele>15.0</ele><time>2026-05-04T17:09:43.426Z</time></trkpt><trkpt lat="44.885635" lon="11.4201544"><ele>15.0</ele><time>2026-05-04T17:09:45.447Z</time></trkpt><trkpt lat="44.8857167" lon="11.4202301"><ele>15.0</ele><time>2026-05-04T17:09:47.449Z</time></trkpt><trkpt lat="44.8857939" lon="11.4202979"><ele>15.0</ele><time>2026-05-04T17:09:49.444Z</time></trkpt><trkpt lat="44.8858423" lon="11.4204042"><ele>15.0</ele><time>2026-05-04T17:09:51.448Z</time></trkpt><trkpt lat="44.885835" lon="11.4205643"><ele>14.833333333333334</ele><time>2026-05-04T17:09:53.443Z</time></trkpt><trkpt lat="44.885821" lon="11.4206627"><ele>14.666666666666668</ele><time>2026-05-04T17:09:54.46Z</time></trkpt><trkpt lat="44.8858034" lon="11.4207757"><ele>14.5</ele><time>2026-05-04T17:09:55.456Z</time></trkpt><trkpt lat="44.8857878" lon="11.4208897"><ele>14.333333333333334</ele><time>2026-05-04T17:09:56.46Z</time></trkpt><trkpt lat="44.8857777" lon="11.4209989"><ele>14.166666666666668</ele><time>2026-05-04T17:09:57.451Z</time></trkpt><trkpt lat="44.8857798" lon="11.4211082"><ele>14.0</ele><time>2026-05-04T17:09:58.453Z</time></trkpt><trkpt lat="44.8857819" lon="11.4212176"><ele>13.833333333333334</ele><time>2026-05-04T17:09:59.482Z</time></trkpt><trkpt lat="44.885781" lon="11.4213323"><ele>13.666666666666668</ele><time>2026-05-04T17:10:00.462Z</time></trkpt><trkpt lat="44.8857889" lon="11.4214512"><ele>13.5</ele><time>2026-05-04T17:10:01.43Z</time></trkpt><trkpt lat="44.885797" lon="11.4215741"><ele>13.333333333333332</ele><time>2026-05-04T17:10:02.456Z</time></trkpt><trkpt lat="44.8858051" lon="11.4217049"><ele>13.166666666666666</ele><time>2026-05-04T17:10:03.452Z</time></trkpt><trkpt lat="44.8858135" lon="11.4218306"><ele>13.0</ele><time>2026-05-04T17:10:04.459Z</time></trkpt><trkpt lat="44.8858237" lon="11.421951"><ele>12.999999999999998</ele><time>2026-05-04T17:10:05.467Z</time></trkpt><trkpt lat="44.8858443" lon="11.4220726"><ele>13.0</ele><time>2026-05-04T17:10:06.432Z</time></trkpt><trkpt lat="44.8858715" lon="11.4221895"><ele>13.0</ele><time>2026-05-04T17:10:07.472Z</time></trkpt><trkpt lat="44.8859031" lon="11.422306"><ele>13.0</ele><time>2026-05-04T17:10:08.449Z</time></trkpt><trkpt lat="44.8859348" lon="11.42242"><ele>12.999999999999998</ele><time>2026-05-04T17:10:09.444Z</time></trkpt><trkpt lat="44.8859607" lon="11.4225266"><ele>13.0</ele><time>2026-05-04T17:10:10.407Z</time></trkpt><trkpt lat="44.8859824" lon="11.4226268"><ele>12.999999999999998</ele><time>2026-05-04T17:10:11.46Z</time></trkpt><trkpt lat="44.8860088" lon="11.4227214"><ele>13.0</ele><time>2026-05-04T17:10:12.451Z</time></trkpt><trkpt lat="44.886035" lon="11.4228037"><ele>13.0</ele><time>2026-05-04T17:10:13.453Z</time></trkpt><trkpt lat="44.886074" lon="11.4229467"><ele>13.0</ele><time>2026-05-04T17:10:15.455Z</time></trkpt><trkpt lat="44.8860341" lon="11.4230459"><ele>12.999999999999998</ele><time>2026-05-04T17:10:17.421Z</time></trkpt><trkpt lat="44.8859392" lon="11.4230954"><ele>13.0</ele><time>2026-05-04T17:10:19.462Z</time></trkpt><trkpt lat="44.8858306" lon="11.4231592"><ele>12.499999999999998</ele><time>2026-05-04T17:10:21.463Z</time></trkpt><trkpt lat="44.8857706" lon="11.4232011"><ele>12.0</ele><time>2026-05-04T17:10:22.461Z</time></trkpt><trkpt lat="44.8857091" lon="11.4232392"><ele>11.5</ele><time>2026-05-04T17:10:23.464Z</time></trkpt><trkpt lat="44.8856511" lon="11.4232759"><ele>11.0</ele><time>2026-05-04T17:10:24.472Z</time></trkpt><trkpt lat="44.8855514" lon="11.4233443"><ele>10.5</ele><time>2026-05-04T17:10:26.447Z</time></trkpt><trkpt lat="44.8854553" lon="11.4233352"><ele>10.0</ele><time>2026-05-04T17:10:28.454Z</time></trkpt><trkpt lat="44.885397" lon="11.4231881"><ele>10.0</ele><time>2026-05-04T17:10:30.468Z</time></trkpt><trkpt lat="44.88537" lon="11.4231006"><ele>10.0</ele><time>2026-05-04T17:10:31.462Z</time></trkpt><trkpt lat="44.8853317" lon="11.4230066"><ele>10.0</ele><time>2026-05-04T17:10:32.446Z</time></trkpt><trkpt lat="44.8852831" lon="11.4229149"><ele>10.0</ele><time>2026-05-04T17:10:33.438Z</time></trkpt><trkpt lat="44.8852346" lon="11.422818"><ele>10.0</ele><time>2026-05-04T17:10:34.464Z</time></trkpt><trkpt lat="44.8851753" lon="11.4227172"><ele>10.0</ele><time>2026-05-04T17:10:35.428Z</time></trkpt><trkpt lat="44.8851169" lon="11.4226183"><ele>10.2</ele><time>2026-05-04T17:10:36.46Z</time></trkpt><trkpt lat="44.8850577" lon="11.4225172"><ele>10.4</ele><time>2026-05-04T17:10:37.459Z</time></trkpt><trkpt lat="44.8849981" lon="11.422409"><ele>10.600000000000001</ele><time>2026-05-04T17:10:38.45Z</time></trkpt><trkpt lat="44.8849346" lon="11.4222921"><ele>10.8</ele><time>2026-05-04T17:10:39.476Z</time></trkpt><trkpt lat="44.8848697" lon="11.4221707"><ele>11.0</ele><time>2026-05-04T17:10:40.442Z</time></trkpt><trkpt lat="44.8848066" lon="11.4220468"><ele>11.0</ele><time>2026-05-04T17:10:41.471Z</time></trkpt><trkpt lat="44.8847458" lon="11.4219192"><ele>11.0</ele><time>2026-05-04T17:10:42.446Z</time></trkpt><trkpt lat="44.8846843" lon="11.4217873"><ele>11.0</ele><time>2026-05-04T17:10:43.465Z</time></trkpt><trkpt lat="44.8846247" lon="11.4216599"><ele>11.0</ele><time>2026-05-04T17:10:44.44Z</time></trkpt><trkpt lat="44.8845628" lon="11.4215279"><ele>11.0</ele><time>2026-05-04T17:10:45.449Z</time></trkpt><trkpt lat="44.8844982" lon="11.4213967"><ele>11.0</ele><time>2026-05-04T17:10:46.451Z</time></trkpt><trkpt lat="44.8844364" lon="11.4212658"><ele>11.0</ele><time>2026-05-04T17:10:47.448Z</time></trkpt><trkpt lat="44.884376" lon="11.4211311"><ele>11.0</ele><time>2026-05-04T17:10:48.443Z</time></trkpt><trkpt lat="44.8843161" lon="11.4209874"><ele>11.0</ele><time>2026-05-04T17:10:49.439Z</time></trkpt><trkpt lat="44.8842623" lon="11.4208459"><ele>11.0</ele><time>2026-05-04T17:10:50.42Z</time></trkpt><trkpt lat="44.8842084" lon="11.4207016"><ele>11.0</ele><time>2026-05-04T17:10:51.459Z</time></trkpt><trkpt lat="44.8841573" lon="11.4205599"><ele>11.0</ele><time>2026-05-04T17:10:52.446Z</time></trkpt><trkpt lat="44.8841089" lon="11.4204135"><ele>11.0</ele><time>2026-05-04T17:10:53.467Z</time></trkpt><trkpt lat="44.8840639" lon="11.4202678"><ele>11.0</ele><time>2026-05-04T17:10:54.444Z</time></trkpt><trkpt lat="44.8840231" lon="11.4201171"><ele>11.0</ele><time>2026-05-04T17:10:55.447Z</time></trkpt><trkpt lat="44.8839866" lon="11.4199588"><ele>11.0</ele><time>2026-05-04T17:10:56.442Z</time></trkpt><trkpt lat="44.8839542" lon="11.4197976"><ele>11.0</ele><time>2026-05-04T17:10:57.457Z</time></trkpt><trkpt lat="44.8839257" lon="11.4196347"><ele>11.0</ele><time>2026-05-04T17:10:58.458Z</time></trkpt><trkpt lat="44.8839028" lon="11.4194707"><ele>11.0</ele><time>2026-05-04T17:10:59.448Z</time></trkpt><trkpt lat="44.8838812" lon="11.419308"><ele>11.0</ele><time>2026-05-04T17:11:00.427Z</time></trkpt><trkpt lat="44.8838632" lon="11.4191455"><ele>11.0</ele><time>2026-05-04T17:11:01.451Z</time></trkpt><trkpt lat="44.8838474" lon="11.4189811"><ele>11.0</ele><time>2026-05-04T17:11:02.472Z</time></trkpt><trkpt lat="44.8838332" lon="11.4188156"><ele>11.0</ele><time>2026-05-04T17:11:03.464Z</time></trkpt><trkpt lat="44.8838159" lon="11.4186505"><ele>11.0</ele><time>2026-05-04T17:11:04.453Z</time></trkpt><trkpt lat="44.8838" lon="11.418488"><ele>11.0</ele><time>2026-05-04T17:11:05.45Z</time></trkpt><trkpt lat="44.8837811" lon="11.4183221"><ele>11.0</ele><time>2026-05-04T17:11:06.467Z</time></trkpt><trkpt lat="44.8837651" lon="11.4181635"><ele>11.0</ele><time>2026-05-04T17:11:07.421Z</time></trkpt><trkpt lat="44.8837509" lon="11.4180061"><ele>11.0</ele><time>2026-05-04T17:11:08.46Z</time></trkpt><trkpt lat="44.8837362" lon="11.4178465"><ele>11.0</ele><time>2026-05-04T17:11:09.469Z</time></trkpt><trkpt lat="44.88372" lon="11.417685"><ele>11.0</ele><time>2026-05-04T17:11:10.459Z</time></trkpt><trkpt lat="44.8837028" lon="11.4175263"><ele>11.0</ele><time>2026-05-04T17:11:11.48Z</time></trkpt><trkpt lat="44.8836819" lon="11.4173676"><ele>11.0</ele><time>2026-05-04T17:11:12.47Z</time></trkpt><trkpt lat="44.8836552" lon="11.4172066"><ele>11.0</ele><time>2026-05-04T17:11:13.468Z</time></trkpt><trkpt lat="44.8836237" lon="11.4170504"><ele>11.0</ele><time>2026-05-04T17:11:14.472Z</time></trkpt><trkpt lat="44.8835862" lon="11.4168955"><ele>11.0</ele><time>2026-05-04T17:11:15.462Z</time></trkpt><trkpt lat="44.8835397" lon="11.4167455"><ele>11.0</ele><time>2026-05-04T17:11:16.456Z</time></trkpt><trkpt lat="44.8834926" lon="11.4165989"><ele>11.0</ele><time>2026-05-04T17:11:17.425Z</time></trkpt><trkpt lat="44.8834378" lon="11.4164594"><ele>10.75</ele><time>2026-05-04T17:11:18.474Z</time></trkpt><trkpt lat="44.883376" lon="11.41632"><ele>10.5</ele><time>2026-05-04T17:11:19.452Z</time></trkpt><trkpt lat="44.8833131" lon="11.4161853"><ele>10.25</ele><time>2026-05-04T17:11:20.461Z</time></trkpt><trkpt lat="44.8832565" lon="11.4160442"><ele>10.0</ele><time>2026-05-04T17:11:21.431Z</time></trkpt><trkpt lat="44.8832029" lon="11.4158964"><ele>10.0</ele><time>2026-05-04T17:11:22.448Z</time></trkpt><trkpt lat="44.8831536" lon="11.4157526"><ele>10.0</ele><time>2026-05-04T17:11:23.468Z</time></trkpt><trkpt lat="44.8831033" lon="11.4156123"><ele>10.0</ele><time>2026-05-04T17:11:24.453Z</time></trkpt><trkpt lat="44.8830486" lon="11.4154767"><ele>10.0</ele><time>2026-05-04T17:11:25.464Z</time></trkpt><trkpt lat="44.8829911" lon="11.4153514"><ele>10.0</ele><time>2026-05-04T17:11:26.43Z</time></trkpt><trkpt lat="44.8829378" lon="11.4152313"><ele>10.0</ele><time>2026-05-04T17:11:27.439Z</time></trkpt><trkpt lat="44.882889" lon="11.4151215"><ele>10.0</ele><time>2026-05-04T17:11:28.446Z</time></trkpt><trkpt lat="44.8828453" lon="11.4150181"><ele>10.0</ele><time>2026-05-04T17:11:29.469Z</time></trkpt><trkpt lat="44.8828006" lon="11.4149232"><ele>10.0</ele><time>2026-05-04T17:11:30.465Z</time></trkpt><trkpt lat="44.8827592" lon="11.4148449"><ele>10.0</ele><time>2026-05-04T17:11:31.468Z</time></trkpt><trkpt lat="44.8827029" lon="11.4147373"><ele>10.0</ele><time>2026-05-04T17:11:33.465Z</time></trkpt><trkpt lat="44.8826658" lon="11.4146622"><ele>9.833333333333334</ele><time>2026-05-04T17:11:36.446Z</time></trkpt><trkpt lat="44.8826256" lon="11.4145623"><ele>9.666666666666668</ele><time>2026-05-04T17:11:38.452Z</time></trkpt><trkpt lat="44.8825796" lon="11.4144207"><ele>9.5</ele><time>2026-05-04T17:11:40.462Z</time></trkpt><trkpt lat="44.8825516" lon="11.4143334"><ele>9.333333333333334</ele><time>2026-05-04T17:11:41.427Z</time></trkpt><trkpt lat="44.8825196" lon="11.4142347"><ele>9.166666666666666</ele><time>2026-05-04T17:11:42.448Z</time></trkpt><trkpt lat="44.8824803" lon="11.4141398"><ele>9.0</ele><time>2026-05-04T17:11:43.466Z</time></trkpt><trkpt lat="44.8824344" lon="11.4140517"><ele>9.166666666666666</ele><time>2026-05-04T17:11:44.432Z</time></trkpt><trkpt lat="44.882384" lon="11.4139657"><ele>9.333333333333334</ele><time>2026-05-04T17:11:45.455Z</time></trkpt><trkpt lat="44.8823291" lon="11.4138803"><ele>9.5</ele><time>2026-05-04T17:11:46.464Z</time></trkpt><trkpt lat="44.8822697" lon="11.4137975"><ele>9.666666666666668</ele><time>2026-05-04T17:11:47.474Z</time></trkpt><trkpt lat="44.8822083" lon="11.4137088"><ele>9.833333333333334</ele><time>2026-05-04T17:11:48.452Z</time></trkpt><trkpt lat="44.8821481" lon="11.4136218"><ele>10.0</ele><time>2026-05-04T17:11:49.458Z</time></trkpt><trkpt lat="44.8820909" lon="11.4135358"><ele>10.0</ele><time>2026-05-04T17:11:50.45Z</time></trkpt><trkpt lat="44.8820371" lon="11.4134576"><ele>10.0</ele><time>2026-05-04T17:11:51.418Z</time></trkpt><trkpt lat="44.8819861" lon="11.4133865"><ele>10.0</ele><time>2026-05-04T17:11:52.419Z</time></trkpt><trkpt lat="44.8819089" lon="11.4132851"><ele>10.0</ele><time>2026-05-04T17:11:54.427Z</time></trkpt><trkpt lat="44.8818649" lon="11.4132128"><ele>10.0</ele><time>2026-05-04T17:11:56.422Z</time></trkpt><trkpt lat="44.8818168" lon="11.4131409"><ele>10.0</ele><time>2026-05-04T17:12:33.45Z</time></trkpt><trkpt lat="44.8817494" lon="11.41306"><ele>10.0</ele><time>2026-05-04T17:12:35.424Z</time></trkpt><trkpt lat="44.8816713" lon="11.41296"><ele>10.0</ele><time>2026-05-04T17:12:37.466Z</time></trkpt><trkpt lat="44.8816026" lon="11.4128574"><ele>10.0</ele><time>2026-05-04T17:12:39.425Z</time></trkpt><trkpt lat="44.8815586" lon="11.4127872"><ele>10.0</ele><time>2026-05-04T17:12:40.393Z</time></trkpt><trkpt lat="44.8815141" lon="11.4127129"><ele>10.0</ele><time>2026-05-04T17:12:41.423Z</time></trkpt><trkpt lat="44.8814589" lon="11.4126413"><ele>10.0</ele><time>2026-05-04T17:12:42.432Z</time></trkpt><trkpt lat="44.8814068" lon="11.412567"><ele>10.0</ele><time>2026-05-04T17:12:43.44Z</time></trkpt><trkpt lat="44.8813516" lon="11.412487"><ele>10.0</ele><time>2026-05-04T17:12:44.429Z</time></trkpt><trkpt lat="44.8812965" lon="11.4124063"><ele>10.0</ele><time>2026-05-04T17:12:45.434Z</time></trkpt><trkpt lat="44.8812329" lon="11.4123217"><ele>10.0</ele><time>2026-05-04T17:12:46.423Z</time></trkpt><trkpt lat="44.8811666" lon="11.4122315"><ele>10.0</ele><time>2026-05-04T17:12:47.442Z</time></trkpt><trkpt lat="44.8811002" lon="11.4121395"><ele>10.0</ele><time>2026-05-04T17:12:48.449Z</time></trkpt><trkpt lat="44.8810272" lon="11.412042"><ele>10.0</ele><time>2026-05-04T17:12:49.428Z</time></trkpt><trkpt lat="44.8809571" lon="11.4119436"><ele>10.0</ele><time>2026-05-04T17:12:50.429Z</time></trkpt><trkpt lat="44.8808799" lon="11.4118411"><ele>10.0</ele><time>2026-05-04T17:12:51.444Z</time></trkpt><trkpt lat="44.8808026" lon="11.4117366"><ele>10.0</ele><time>2026-05-04T17:12:52.441Z</time></trkpt><trkpt lat="44.8807212" lon="11.4116248"><ele>10.0</ele><time>2026-05-04T17:12:53.437Z</time></trkpt><trkpt lat="44.8806372" lon="11.4115162"><ele>10.0</ele><time>2026-05-04T17:12:54.435Z</time></trkpt><trkpt lat="44.8805535" lon="11.4114041"><ele>10.0</ele><time>2026-05-04T17:12:55.431Z</time></trkpt><trkpt lat="44.8804662" lon="11.4112884"><ele>10.0</ele><time>2026-05-04T17:12:56.444Z</time></trkpt><trkpt lat="44.8803861" lon="11.4111677"><ele>10.0</ele><time>2026-05-04T17:12:57.434Z</time></trkpt><trkpt lat="44.8803043" lon="11.4110502"><ele>10.0</ele><time>2026-05-04T17:12:58.452Z</time></trkpt><trkpt lat="44.8802268" lon="11.4109348"><ele>10.0</ele><time>2026-05-04T17:12:59.468Z</time></trkpt><trkpt lat="44.8801542" lon="11.4108164"><ele>10.0</ele><time>2026-05-04T17:13:00.437Z</time></trkpt><trkpt lat="44.8800872" lon="11.4107008"><ele>10.0</ele><time>2026-05-04T17:13:01.445Z</time></trkpt><trkpt lat="44.8800202" lon="11.4105917"><ele>10.0</ele><time>2026-05-04T17:13:02.432Z</time></trkpt><trkpt lat="44.8799451" lon="11.4104964"><ele>9.6</ele><time>2026-05-04T17:13:03.446Z</time></trkpt><trkpt lat="44.8798554" lon="11.4104333"><ele>9.2</ele><time>2026-05-04T17:13:04.434Z</time></trkpt><trkpt lat="44.8797537" lon="11.4104083"><ele>8.8</ele><time>2026-05-04T17:13:05.452Z</time></trkpt><trkpt lat="44.8796572" lon="11.4104119"><ele>8.4</ele><time>2026-05-04T17:13:06.446Z</time></trkpt><trkpt lat="44.8795582" lon="11.4104254"><ele>8.0</ele><time>2026-05-04T17:13:07.443Z</time></trkpt><trkpt lat="44.8794643" lon="11.4104473"><ele>7.999999999999999</ele><time>2026-05-04T17:13:08.445Z</time></trkpt><trkpt lat="44.8793734" lon="11.4104796"><ele>8.0</ele><time>2026-05-04T17:13:09.419Z</time></trkpt><trkpt lat="44.8792863" lon="11.4105057"><ele>8.0</ele><time>2026-05-04T17:13:10.444Z</time></trkpt><trkpt lat="44.879207" lon="11.4105245"><ele>8.0</ele><time>2026-05-04T17:13:11.451Z</time></trkpt><trkpt lat="44.8791278" lon="11.4105125"><ele>7.999999999999999</ele><time>2026-05-04T17:13:12.437Z</time></trkpt><trkpt lat="44.8790614" lon="11.4104619"><ele>8.0</ele><time>2026-05-04T17:13:13.437Z</time></trkpt><trkpt lat="44.8790176" lon="11.4103675"><ele>8.142857142857142</ele><time>2026-05-04T17:13:14.442Z</time></trkpt><trkpt lat="44.8789979" lon="11.4102639"><ele>8.285714285714285</ele><time>2026-05-04T17:13:15.444Z</time></trkpt><trkpt lat="44.8789872" lon="11.4101573"><ele>8.428571428571429</ele><time>2026-05-04T17:13:16.432Z</time></trkpt><trkpt lat="44.8789803" lon="11.410061"><ele>8.571428571428571</ele><time>2026-05-04T17:13:17.445Z</time></trkpt><trkpt lat="44.8789752" lon="11.4099582"><ele>8.714285714285715</ele><time>2026-05-04T17:13:18.435Z</time></trkpt><trkpt lat="44.878964" lon="11.409854"><ele>8.857142857142858</ele><time>2026-05-04T17:13:19.455Z</time></trkpt><trkpt lat="44.878978" lon="11.4097493"><ele>9.0</ele><time>2026-05-04T17:13:20.425Z</time></trkpt><trkpt lat="44.8790305" lon="11.4096694"><ele>9.166666666666666</ele><time>2026-05-04T17:13:21.456Z</time></trkpt><trkpt lat="44.8791104" lon="11.4096281"><ele>9.333333333333334</ele><time>2026-05-04T17:13:22.431Z</time></trkpt><trkpt lat="44.8791901" lon="11.4096057"><ele>9.5</ele><time>2026-05-04T17:13:23.397Z</time></trkpt><trkpt lat="44.8792587" lon="11.4095774"><ele>9.666666666666668</ele><time>2026-05-04T17:13:24.415Z</time></trkpt><trkpt lat="44.87932" lon="11.409523"><ele>9.833333333333334</ele><time>2026-05-04T17:13:25.425Z</time></trkpt><trkpt lat="44.8793605" lon="11.4093845"><ele>10.0</ele><time>2026-05-04T17:13:27.447Z</time></trkpt><trkpt lat="44.8793239" lon="11.4092841"><ele>10.0</ele><time>2026-05-04T17:13:28.431Z</time></trkpt><trkpt lat="44.8792601" lon="11.4091878"><ele>10.0</ele><time>2026-05-04T17:13:29.416Z</time></trkpt><trkpt lat="44.879185" lon="11.4090992"><ele>10.0</ele><time>2026-05-04T17:13:30.437Z</time></trkpt><trkpt lat="44.8791077" lon="11.4090168"><ele>10.0</ele><time>2026-05-04T17:13:31.451Z</time></trkpt><trkpt lat="44.8790235" lon="11.4089247"><ele>10.0</ele><time>2026-05-04T17:13:32.447Z</time></trkpt><trkpt lat="44.8789401" lon="11.4088304"><ele>9.75</ele><time>2026-05-04T17:13:33.455Z</time></trkpt><trkpt lat="44.8788614" lon="11.4087212"><ele>9.5</ele><time>2026-05-04T17:13:34.449Z</time></trkpt><trkpt lat="44.8787735" lon="11.4086172"><ele>9.25</ele><time>2026-05-04T17:13:35.403Z</time></trkpt><trkpt lat="44.8786844" lon="11.4085085"><ele>9.0</ele><time>2026-05-04T17:13:36.413Z</time></trkpt><trkpt lat="44.8785952" lon="11.4083951"><ele>9.0</ele><time>2026-05-04T17:13:37.449Z</time></trkpt><trkpt lat="44.8785038" lon="11.4082805"><ele>9.0</ele><time>2026-05-04T17:13:38.426Z</time></trkpt><trkpt lat="44.8784086" lon="11.4081691"><ele>9.0</ele><time>2026-05-04T17:13:39.467Z</time></trkpt><trkpt lat="44.8783147" lon="11.408057"><ele>9.0</ele><time>2026-05-04T17:13:40.466Z</time></trkpt><trkpt lat="44.8782172" lon="11.4079384"><ele>9.5</ele><time>2026-05-04T17:13:41.445Z</time></trkpt><trkpt lat="44.8781195" lon="11.4078181"><ele>10.0</ele><time>2026-05-04T17:13:42.455Z</time></trkpt><trkpt lat="44.8780239" lon="11.4076967"><ele>10.5</ele><time>2026-05-04T17:13:43.453Z</time></trkpt><trkpt lat="44.8779287" lon="11.4075727"><ele>11.0</ele><time>2026-05-04T17:13:44.464Z</time></trkpt><trkpt lat="44.8778292" lon="11.4074503"><ele>11.0</ele><time>2026-05-04T17:13:45.478Z</time></trkpt><trkpt lat="44.877731" lon="11.4073304"><ele>11.0</ele><time>2026-05-04T17:13:46.424Z</time></trkpt><trkpt lat="44.8776297" lon="11.4072094"><ele>11.0</ele><time>2026-05-04T17:13:47.419Z</time></trkpt><trkpt lat="44.8775299" lon="11.4070901"><ele>11.0</ele><time>2026-05-04T17:13:48.434Z</time></trkpt><trkpt lat="44.8774308" lon="11.4069701"><ele>11.0</ele><time>2026-05-04T17:13:49.47Z</time></trkpt><trkpt lat="44.8773365" lon="11.4068499"><ele>11.0</ele><time>2026-05-04T17:13:50.456Z</time></trkpt><trkpt lat="44.8772407" lon="11.4067282"><ele>11.0</ele><time>2026-05-04T17:13:51.459Z</time></trkpt><trkpt lat="44.877141" lon="11.4066097"><ele>11.0</ele><time>2026-05-04T17:13:52.472Z</time></trkpt><trkpt lat="44.8770394" lon="11.4064906"><ele>11.0</ele><time>2026-05-04T17:13:53.454Z</time></trkpt><trkpt lat="44.8769381" lon="11.4063745"><ele>11.0</ele><time>2026-05-04T17:13:54.461Z</time></trkpt><trkpt lat="44.8768375" lon="11.4062592"><ele>11.0</ele><time>2026-05-04T17:13:55.429Z</time></trkpt><trkpt lat="44.8767363" lon="11.4061453"><ele>11.0</ele><time>2026-05-04T17:13:56.426Z</time></trkpt><trkpt lat="44.8766352" lon="11.4060345"><ele>11.25</ele><time>2026-05-04T17:13:57.463Z</time></trkpt><trkpt lat="44.8765349" lon="11.4059169"><ele>11.5</ele><time>2026-05-04T17:13:58.453Z</time></trkpt><trkpt lat="44.8764368" lon="11.4058047"><ele>11.75</ele><time>2026-05-04T17:13:59.438Z</time></trkpt><trkpt lat="44.8763342" lon="11.405697"><ele>12.0</ele><time>2026-05-04T17:14:00.415Z</time></trkpt><trkpt lat="44.8762328" lon="11.4055859"><ele>11.5</ele><time>2026-05-04T17:14:01.483Z</time></trkpt><trkpt lat="44.876134" lon="11.4054726"><ele>11.0</ele><time>2026-05-04T17:14:02.469Z</time></trkpt><trkpt lat="44.8760358" lon="11.4053599"><ele>10.5</ele><time>2026-05-04T17:14:03.468Z</time></trkpt><trkpt lat="44.8759396" lon="11.4052485"><ele>10.0</ele><time>2026-05-04T17:14:04.461Z</time></trkpt><trkpt lat="44.875846" lon="11.4051344"><ele>11.0</ele><time>2026-05-04T17:14:05.453Z</time></trkpt><trkpt lat="44.8757487" lon="11.4050182"><ele>12.0</ele><time>2026-05-04T17:14:06.457Z</time></trkpt><trkpt lat="44.8756478" lon="11.4049012"><ele>13.0</ele><time>2026-05-04T17:14:07.471Z</time></trkpt><trkpt lat="44.8755507" lon="11.4047846"><ele>14.0</ele><time>2026-05-04T17:14:08.475Z</time></trkpt><trkpt lat="44.8754567" lon="11.404673"><ele>14.0</ele><time>2026-05-04T17:14:09.461Z</time></trkpt><trkpt lat="44.8753596" lon="11.4045617"><ele>14.0</ele><time>2026-05-04T17:14:10.463Z</time></trkpt><trkpt lat="44.8752582" lon="11.4044518"><ele>14.0</ele><time>2026-05-04T17:14:11.469Z</time></trkpt><trkpt lat="44.8751636" lon="11.4043367"><ele>14.0</ele><time>2026-05-04T17:14:12.48Z</time></trkpt><trkpt lat="44.8750652" lon="11.4042284"><ele>14.0</ele><time>2026-05-04T17:14:13.428Z</time></trkpt><trkpt lat="44.8749656" lon="11.4041142"><ele>14.0</ele><time>2026-05-04T17:14:14.445Z</time></trkpt><trkpt lat="44.8748709" lon="11.4039956"><ele>14.0</ele><time>2026-05-04T17:14:15.463Z</time></trkpt><trkpt lat="44.8747748" lon="11.4038759"><ele>14.0</ele><time>2026-05-04T17:14:16.401Z</time></trkpt><trkpt lat="44.8746768" lon="11.4037543"><ele>13.75</ele><time>2026-05-04T17:14:17.413Z</time></trkpt><trkpt lat="44.8745803" lon="11.4036333"><ele>13.5</ele><time>2026-05-04T17:14:18.402Z</time></trkpt><trkpt lat="44.874485" lon="11.4035058"><ele>13.25</ele><time>2026-05-04T17:14:19.431Z</time></trkpt><trkpt lat="44.874392" lon="11.4033822"><ele>13.0</ele><time>2026-05-04T17:14:20.415Z</time></trkpt><trkpt lat="44.8742997" lon="11.4032636"><ele>12.5</ele><time>2026-05-04T17:14:21.461Z</time></trkpt><trkpt lat="44.8742052" lon="11.4031392"><ele>12.0</ele><time>2026-05-04T17:14:22.437Z</time></trkpt><trkpt lat="44.8741148" lon="11.4030156"><ele>11.5</ele><time>2026-05-04T17:14:23.402Z</time></trkpt><trkpt lat="44.8740223" lon="11.4028883"><ele>11.0</ele><time>2026-05-04T17:14:24.404Z</time></trkpt><trkpt lat="44.8739282" lon="11.4027622"><ele>10.75</ele><time>2026-05-04T17:14:25.42Z</time></trkpt><trkpt lat="44.873833" lon="11.4026399"><ele>10.5</ele><time>2026-05-04T17:14:26.422Z</time></trkpt><trkpt lat="44.8737425" lon="11.4025176"><ele>10.25</ele><time>2026-05-04T17:14:27.452Z</time></trkpt><trkpt lat="44.8736491" lon="11.4023979"><ele>10.0</ele><time>2026-05-04T17:14:28.433Z</time></trkpt><trkpt lat="44.8735568" lon="11.402276"><ele>10.0</ele><time>2026-05-04T17:14:29.462Z</time></trkpt><trkpt lat="44.8734634" lon="11.4021514"><ele>10.0</ele><time>2026-05-04T17:14:30.458Z</time></trkpt><trkpt lat="44.8733698" lon="11.402031"><ele>10.0</ele><time>2026-05-04T17:14:31.436Z</time></trkpt><trkpt lat="44.8732753" lon="11.4019125"><ele>10.0</ele><time>2026-05-04T17:14:32.457Z</time></trkpt><trkpt lat="44.8731738" lon="11.4018015"><ele>10.0</ele><time>2026-05-04T17:14:33.441Z</time></trkpt><trkpt lat="44.8730774" lon="11.401685"><ele>10.0</ele><time>2026-05-04T17:14:34.408Z</time></trkpt><trkpt lat="44.8729789" lon="11.401577"><ele>10.0</ele><time>2026-05-04T17:14:35.412Z</time></trkpt><trkpt lat="44.8728771" lon="11.40147"><ele>10.0</ele><time>2026-05-04T17:14:36.447Z</time></trkpt><trkpt lat="44.8727761" lon="11.4013632"><ele>10.0</ele><time>2026-05-04T17:14:37.447Z</time></trkpt><trkpt lat="44.8726775" lon="11.4012555"><ele>10.0</ele><time>2026-05-04T17:14:38.452Z</time></trkpt><trkpt lat="44.8725755" lon="11.4011506"><ele>10.0</ele><time>2026-05-04T17:14:39.459Z</time></trkpt><trkpt lat="44.8724718" lon="11.4010457"><ele>10.0</ele><time>2026-05-04T17:14:40.439Z</time></trkpt><trkpt lat="44.872371" lon="11.4009397"><ele>10.75</ele><time>2026-05-04T17:14:41.443Z</time></trkpt><trkpt lat="44.8722707" lon="11.4008343"><ele>11.5</ele><time>2026-05-04T17:14:42.449Z</time></trkpt><trkpt lat="44.8721679" lon="11.4007282"><ele>12.25</ele><time>2026-05-04T17:14:43.448Z</time></trkpt><trkpt lat="44.8720652" lon="11.4006215"><ele>13.0</ele><time>2026-05-04T17:14:44.444Z</time></trkpt><trkpt lat="44.8719617" lon="11.4005163"><ele>12.5</ele><time>2026-05-04T17:14:45.45Z</time></trkpt><trkpt lat="44.8718627" lon="11.4004076"><ele>12.0</ele><time>2026-05-04T17:14:46.45Z</time></trkpt><trkpt lat="44.8717689" lon="11.4002925"><ele>11.5</ele><time>2026-05-04T17:14:47.469Z</time></trkpt><trkpt lat="44.8716796" lon="11.4001639"><ele>11.0</ele><time>2026-05-04T17:14:48.452Z</time></trkpt><trkpt lat="44.8715954" lon="11.4000294"><ele>11.5</ele><time>2026-05-04T17:14:49.442Z</time></trkpt><trkpt lat="44.8715206" lon="11.3998903"><ele>12.0</ele><time>2026-05-04T17:14:50.454Z</time></trkpt><trkpt lat="44.871452" lon="11.3997397"><ele>12.5</ele><time>2026-05-04T17:14:51.434Z</time></trkpt><trkpt lat="44.8713903" lon="11.3995896"><ele>13.0</ele><time>2026-05-04T17:14:52.452Z</time></trkpt><trkpt lat="44.8713283" lon="11.399432"><ele>13.0</ele><time>2026-05-04T17:14:53.456Z</time></trkpt><trkpt lat="44.8712712" lon="11.3992735"><ele>13.0</ele><time>2026-05-04T17:14:54.446Z</time></trkpt><trkpt lat="44.8712221" lon="11.3991148"><ele>13.0</ele><time>2026-05-04T17:14:55.42Z</time></trkpt><trkpt lat="44.8711779" lon="11.3989483"><ele>13.0</ele><time>2026-05-04T17:14:56.415Z</time></trkpt><trkpt lat="44.8711402" lon="11.3987771"><ele>12.5</ele><time>2026-05-04T17:14:57.467Z</time></trkpt><trkpt lat="44.8711077" lon="11.3986028"><ele>12.0</ele><time>2026-05-04T17:14:58.459Z</time></trkpt><trkpt lat="44.8710865" lon="11.3984263"><ele>11.5</ele><time>2026-05-04T17:14:59.461Z</time></trkpt><trkpt lat="44.8710645" lon="11.3982469"><ele>11.0</ele><time>2026-05-04T17:15:00.441Z</time></trkpt><trkpt lat="44.8710421" lon="11.398073"><ele>11.0</ele><time>2026-05-04T17:15:01.44Z</time></trkpt><trkpt lat="44.871008" lon="11.397902"><ele>11.0</ele><time>2026-05-04T17:15:02.44Z</time></trkpt><trkpt lat="44.8709639" lon="11.3977375"><ele>11.0</ele><time>2026-05-04T17:15:03.457Z</time></trkpt><trkpt lat="44.8709019" lon="11.3975853"><ele>11.0</ele><time>2026-05-04T17:15:04.442Z</time></trkpt><trkpt lat="44.8708235" lon="11.3974451"><ele>11.25</ele><time>2026-05-04T17:15:05.434Z</time></trkpt><trkpt lat="44.8707385" lon="11.3973171"><ele>11.5</ele><time>2026-05-04T17:15:06.452Z</time></trkpt><trkpt lat="44.8706473" lon="11.3971841"><ele>11.75</ele><time>2026-05-04T17:15:07.45Z</time></trkpt><trkpt lat="44.8705545" lon="11.3970508"><ele>12.0</ele><time>2026-05-04T17:15:08.419Z</time></trkpt><trkpt lat="44.8704641" lon="11.3969171"><ele>11.75</ele><time>2026-05-04T17:15:09.455Z</time></trkpt><trkpt lat="44.8703786" lon="11.396781"><ele>11.5</ele><time>2026-05-04T17:15:10.431Z</time></trkpt><trkpt lat="44.8703019" lon="11.3966344"><ele>11.25</ele><time>2026-05-04T17:15:11.453Z</time></trkpt><trkpt lat="44.870231" lon="11.3964831"><ele>11.0</ele><time>2026-05-04T17:15:12.439Z</time></trkpt><trkpt lat="44.8701593" lon="11.3963289"><ele>10.5</ele><time>2026-05-04T17:15:13.457Z</time></trkpt><trkpt lat="44.8700881" lon="11.3961714"><ele>10.0</ele><time>2026-05-04T17:15:14.442Z</time></trkpt><trkpt lat="44.870023" lon="11.3960056"><ele>9.5</ele><time>2026-05-04T17:15:15.457Z</time></trkpt><trkpt lat="44.8699691" lon="11.3958381"><ele>9.0</ele><time>2026-05-04T17:15:16.463Z</time></trkpt><trkpt lat="44.8699158" lon="11.3956692"><ele>9.25</ele><time>2026-05-04T17:15:17.478Z</time></trkpt><trkpt lat="44.8698629" lon="11.3954989"><ele>9.5</ele><time>2026-05-04T17:15:18.458Z</time></trkpt><trkpt lat="44.8698116" lon="11.3953291"><ele>9.75</ele><time>2026-05-04T17:15:19.451Z</time></trkpt><trkpt lat="44.8697585" lon="11.3951598"><ele>10.0</ele><time>2026-05-04T17:15:20.439Z</time></trkpt><trkpt lat="44.8697045" lon="11.394995"><ele>10.0</ele><time>2026-05-04T17:15:21.481Z</time></trkpt><trkpt lat="44.8696428" lon="11.3948333"><ele>10.0</ele><time>2026-05-04T17:15:22.476Z</time></trkpt><trkpt lat="44.8695806" lon="11.3946723"><ele>10.0</ele><time>2026-05-04T17:15:23.465Z</time></trkpt><trkpt lat="44.8695158" lon="11.3945156"><ele>10.0</ele><time>2026-05-04T17:15:24.447Z</time></trkpt><trkpt lat="44.8694441" lon="11.3943627"><ele>9.75</ele><time>2026-05-04T17:15:25.473Z</time></trkpt><trkpt lat="44.8693667" lon="11.3942184"><ele>9.5</ele><time>2026-05-04T17:15:26.462Z</time></trkpt><trkpt lat="44.8692827" lon="11.3940798"><ele>9.25</ele><time>2026-05-04T17:15:27.469Z</time></trkpt><trkpt lat="44.869192" lon="11.3939439"><ele>9.0</ele><time>2026-05-04T17:15:28.457Z</time></trkpt><trkpt lat="44.8690999" lon="11.3938158"><ele>9.0</ele><time>2026-05-04T17:15:29.451Z</time></trkpt><trkpt lat="44.8690026" lon="11.3936951"><ele>9.0</ele><time>2026-05-04T17:15:30.448Z</time></trkpt><trkpt lat="44.8688991" lon="11.3935891"><ele>9.0</ele><time>2026-05-04T17:15:31.475Z</time></trkpt><trkpt lat="44.8687876" lon="11.3934952"><ele>9.0</ele><time>2026-05-04T17:15:32.465Z</time></trkpt><trkpt lat="44.8686715" lon="11.3934186"><ele>9.0</ele><time>2026-05-04T17:15:33.443Z</time></trkpt><trkpt lat="44.8685523" lon="11.3933535"><ele>9.0</ele><time>2026-05-04T17:15:34.446Z</time></trkpt><trkpt lat="44.8684297" lon="11.3932827"><ele>9.0</ele><time>2026-05-04T17:15:35.404Z</time></trkpt><trkpt lat="44.8683113" lon="11.3932144"><ele>9.0</ele><time>2026-05-04T17:15:36.437Z</time></trkpt><trkpt lat="44.8681913" lon="11.3931505"><ele>8.75</ele><time>2026-05-04T17:15:37.476Z</time></trkpt><trkpt lat="44.8680689" lon="11.3930833"><ele>8.5</ele><time>2026-05-04T17:15:38.462Z</time></trkpt><trkpt lat="44.8679495" lon="11.3930183"><ele>8.25</ele><time>2026-05-04T17:15:39.46Z</time></trkpt><trkpt lat="44.8678342" lon="11.3929549"><ele>8.0</ele><time>2026-05-04T17:15:40.444Z</time></trkpt><trkpt lat="44.8677224" lon="11.3928946"><ele>8.0</ele><time>2026-05-04T17:15:41.435Z</time></trkpt><trkpt lat="44.867615" lon="11.3928358"><ele>8.0</ele><time>2026-05-04T17:15:42.398Z</time></trkpt><trkpt lat="44.8675143" lon="11.3927723"><ele>8.0</ele><time>2026-05-04T17:15:43.415Z</time></trkpt><trkpt lat="44.8674266" lon="11.3926856"><ele>8.0</ele><time>2026-05-04T17:15:44.42Z</time></trkpt><trkpt lat="44.8673502" lon="11.3925747"><ele>8.0</ele><time>2026-05-04T17:15:45.419Z</time></trkpt><trkpt lat="44.8672799" lon="11.3924479"><ele>8.600000000000001</ele><time>2026-05-04T17:15:46.454Z</time></trkpt><trkpt lat="44.8672177" lon="11.3923183"><ele>9.200000000000001</ele><time>2026-05-04T17:15:47.448Z</time></trkpt><trkpt lat="44.8671607" lon="11.392191"><ele>9.8</ele><time>2026-05-04T17:15:48.437Z</time></trkpt><trkpt lat="44.867103" lon="11.392059"><ele>10.4</ele><time>2026-05-04T17:15:49.443Z</time></trkpt><trkpt lat="44.8670595" lon="11.3919162"><ele>11.0</ele><time>2026-05-04T17:15:50.423Z</time></trkpt><trkpt lat="44.8670228" lon="11.3917811"><ele>11.0</ele><time>2026-05-04T17:15:51.448Z</time></trkpt><trkpt lat="44.866996" lon="11.3916568"><ele>11.0</ele><time>2026-05-04T17:15:52.435Z</time></trkpt><trkpt lat="44.8669705" lon="11.3915493"><ele>11.0</ele><time>2026-05-04T17:15:53.446Z</time></trkpt><trkpt lat="44.8669429" lon="11.3914569"><ele>11.0</ele><time>2026-05-04T17:15:54.418Z</time></trkpt><trkpt lat="44.8668598" lon="11.3913607"><ele>11.0</ele><time>2026-05-04T17:15:56.427Z</time></trkpt><trkpt lat="44.8667427" lon="11.3913871"><ele>11.0</ele><time>2026-05-04T17:15:58.466Z</time></trkpt><trkpt lat="44.8666756" lon="11.3914176"><ele>11.0</ele><time>2026-05-04T17:15:59.425Z</time></trkpt><trkpt lat="44.8665978" lon="11.3914465"><ele>11.0</ele><time>2026-05-04T17:16:00.439Z</time></trkpt><trkpt lat="44.8665161" lon="11.3914638"><ele>11.0</ele><time>2026-05-04T17:16:01.425Z</time></trkpt><trkpt lat="44.8664327" lon="11.3914498"><ele>11.0</ele><time>2026-05-04T17:16:02.436Z</time></trkpt><trkpt lat="44.8663482" lon="11.3914159"><ele>11.0</ele><time>2026-05-04T17:16:03.447Z</time></trkpt><trkpt lat="44.8662658" lon="11.3913757"><ele>11.333333333333332</ele><time>2026-05-04T17:16:04.438Z</time></trkpt><trkpt lat="44.8661793" lon="11.391337"><ele>11.666666666666666</ele><time>2026-05-04T17:16:05.422Z</time></trkpt><trkpt lat="44.8661012" lon="11.3912965"><ele>12.0</ele><time>2026-05-04T17:16:06.438Z</time></trkpt><trkpt lat="44.8660334" lon="11.3912684"><ele>12.333333333333332</ele><time>2026-05-04T17:16:07.431Z</time></trkpt><trkpt lat="44.8659714" lon="11.3912381"><ele>12.666666666666666</ele><time>2026-05-04T17:16:08.421Z</time></trkpt><trkpt lat="44.8658566" lon="11.3911822"><ele>13.0</ele><time>2026-05-04T17:16:10.427Z</time></trkpt><trkpt lat="44.8657359" lon="11.3911305"><ele>13.166666666666666</ele><time>2026-05-04T17:16:12.423Z</time></trkpt><trkpt lat="44.8656652" lon="11.3911013"><ele>13.333333333333332</ele><time>2026-05-04T17:16:13.46Z</time></trkpt><trkpt lat="44.8655843" lon="11.391074"><ele>13.5</ele><time>2026-05-04T17:16:14.441Z</time></trkpt><trkpt lat="44.8655073" lon="11.3910391"><ele>13.666666666666668</ele><time>2026-05-04T17:16:15.458Z</time></trkpt><trkpt lat="44.865435" lon="11.3910037"><ele>13.833333333333334</ele><time>2026-05-04T17:16:16.445Z</time></trkpt><trkpt lat="44.8653582" lon="11.3909689"><ele>14.0</ele><time>2026-05-04T17:16:17.46Z</time></trkpt><trkpt lat="44.8652869" lon="11.3909314"><ele>14.0</ele><time>2026-05-04T17:16:18.446Z</time></trkpt><trkpt lat="44.8652192" lon="11.3908995"><ele>13.999999999999998</ele><time>2026-05-04T17:16:19.462Z</time></trkpt><trkpt lat="44.8651221" lon="11.3908357"><ele>13.999999999999998</ele><time>2026-05-04T17:16:21.438Z</time></trkpt><trkpt lat="44.8650713" lon="11.3907721"><ele>14.0</ele><time>2026-05-04T17:16:23.444Z</time></trkpt><trkpt lat="44.865077" lon="11.3906254"><ele>14.0</ele><time>2026-05-04T17:16:26.447Z</time></trkpt><trkpt lat="44.865111" lon="11.3904747"><ele>14.000000000000002</ele><time>2026-05-04T17:16:28.45Z</time></trkpt><trkpt lat="44.8651312" lon="11.3903785"><ele>14.0</ele><time>2026-05-04T17:16:29.435Z</time></trkpt><trkpt lat="44.8651572" lon="11.3902774"><ele>14.0</ele><time>2026-05-04T17:16:30.444Z</time></trkpt><trkpt lat="44.8651869" lon="11.3901624"><ele>14.0</ele><time>2026-05-04T17:16:31.45Z</time></trkpt><trkpt lat="44.8652157" lon="11.390048"><ele>14.000000000000002</ele><time>2026-05-04T17:16:32.414Z</time></trkpt><trkpt lat="44.8652446" lon="11.3899246"><ele>14.0</ele><time>2026-05-04T17:16:33.454Z</time></trkpt><trkpt lat="44.8652777" lon="11.3897977"><ele>13.6</ele><time>2026-05-04T17:16:34.418Z</time></trkpt><trkpt lat="44.8653115" lon="11.3896614"><ele>13.2</ele><time>2026-05-04T17:16:35.428Z</time></trkpt><trkpt lat="44.8653485" lon="11.3895231"><ele>12.799999999999999</ele><time>2026-05-04T17:16:36.443Z</time></trkpt><trkpt lat="44.8653812" lon="11.3893744"><ele>12.399999999999999</ele><time>2026-05-04T17:16:37.457Z</time></trkpt><trkpt lat="44.8654081" lon="11.3892189"><ele>12.0</ele><time>2026-05-04T17:16:38.462Z</time></trkpt><trkpt lat="44.8654266" lon="11.3890553"><ele>12.0</ele><time>2026-05-04T17:16:39.426Z</time></trkpt><trkpt lat="44.8654292" lon="11.3888914"><ele>12.0</ele><time>2026-05-04T17:16:40.407Z</time></trkpt><trkpt lat="44.8654193" lon="11.3887249"><ele>12.0</ele><time>2026-05-04T17:16:41.44Z</time></trkpt><trkpt lat="44.8653967" lon="11.388555"><ele>12.0</ele><time>2026-05-04T17:16:42.452Z</time></trkpt><trkpt lat="44.8653639" lon="11.3883932"><ele>11.5</ele><time>2026-05-04T17:16:43.43Z</time></trkpt><trkpt lat="44.8653252" lon="11.3882327"><ele>11.0</ele><time>2026-05-04T17:16:44.449Z</time></trkpt><trkpt lat="44.8652799" lon="11.3880786"><ele>10.5</ele><time>2026-05-04T17:16:45.426Z</time></trkpt><trkpt lat="44.8652367" lon="11.3879186"><ele>10.0</ele><time>2026-05-04T17:16:46.446Z</time></trkpt><trkpt lat="44.8651949" lon="11.3877561"><ele>10.0</ele><time>2026-05-04T17:16:47.433Z</time></trkpt><trkpt lat="44.8651511" lon="11.3875932"><ele>10.0</ele><time>2026-05-04T17:16:48.439Z</time></trkpt><trkpt lat="44.8651071" lon="11.3874309"><ele>10.0</ele><time>2026-05-04T17:16:49.449Z</time></trkpt><trkpt lat="44.8650573" lon="11.3872712"><ele>10.0</ele><time>2026-05-04T17:16:50.455Z</time></trkpt><trkpt lat="44.8650078" lon="11.387108"><ele>10.5</ele><time>2026-05-04T17:16:51.466Z</time></trkpt><trkpt lat="44.8649589" lon="11.3869428"><ele>11.0</ele><time>2026-05-04T17:16:52.443Z</time></trkpt><trkpt lat="44.8649105" lon="11.3867743"><ele>11.5</ele><time>2026-05-04T17:16:53.42Z</time></trkpt><trkpt lat="44.8648632" lon="11.3866038"><ele>12.0</ele><time>2026-05-04T17:16:54.43Z</time></trkpt><trkpt lat="44.8648158" lon="11.3864327"><ele>11.75</ele><time>2026-05-04T17:16:55.432Z</time></trkpt><trkpt lat="44.8647747" lon="11.3862607"><ele>11.5</ele><time>2026-05-04T17:16:56.442Z</time></trkpt><trkpt lat="44.8647295" lon="11.3860815"><ele>11.25</ele><time>2026-05-04T17:16:57.433Z</time></trkpt><trkpt lat="44.8646851" lon="11.3859037"><ele>11.0</ele><time>2026-05-04T17:16:58.451Z</time></trkpt><trkpt lat="44.8646492" lon="11.3857286"><ele>11.0</ele><time>2026-05-04T17:16:59.417Z</time></trkpt><trkpt lat="44.8646116" lon="11.3855517"><ele>11.0</ele><time>2026-05-04T17:17:00.411Z</time></trkpt><trkpt lat="44.8645765" lon="11.3853757"><ele>11.0</ele><time>2026-05-04T17:17:01.442Z</time></trkpt><trkpt lat="44.8645418" lon="11.3851988"><ele>11.0</ele><time>2026-05-04T17:17:02.442Z</time></trkpt><trkpt lat="44.8645047" lon="11.3850185"><ele>11.0</ele><time>2026-05-04T17:17:03.461Z</time></trkpt><trkpt lat="44.8644668" lon="11.3848395"><ele>11.0</ele><time>2026-05-04T17:17:04.442Z</time></trkpt><trkpt lat="44.8644259" lon="11.384662"><ele>11.0</ele><time>2026-05-04T17:17:05.453Z</time></trkpt><trkpt lat="44.8643829" lon="11.3844872"><ele>11.0</ele><time>2026-05-04T17:17:06.431Z</time></trkpt><trkpt lat="44.8643357" lon="11.3843151"><ele>11.0</ele><time>2026-05-04T17:17:07.461Z</time></trkpt><trkpt lat="44.8642816" lon="11.3841373"><ele>11.0</ele><time>2026-05-04T17:17:08.455Z</time></trkpt><trkpt lat="44.8642276" lon="11.3839577"><ele>11.0</ele><time>2026-05-04T17:17:09.46Z</time></trkpt><trkpt lat="44.8641762" lon="11.3837759"><ele>11.0</ele><time>2026-05-04T17:17:10.469Z</time></trkpt><trkpt lat="44.8641271" lon="11.3836044"><ele>11.0</ele><time>2026-05-04T17:17:11.439Z</time></trkpt><trkpt lat="44.8640849" lon="11.3834266"><ele>11.0</ele><time>2026-05-04T17:17:12.46Z</time></trkpt><trkpt lat="44.864038" lon="11.3832537"><ele>11.0</ele><time>2026-05-04T17:17:13.461Z</time></trkpt><trkpt lat="44.8639884" lon="11.3830792"><ele>11.0</ele><time>2026-05-04T17:17:14.47Z</time></trkpt><trkpt lat="44.8639402" lon="11.382907"><ele>10.75</ele><time>2026-05-04T17:17:15.463Z</time></trkpt><trkpt lat="44.8638911" lon="11.3827345"><ele>10.5</ele><time>2026-05-04T17:17:16.456Z</time></trkpt><trkpt lat="44.8638404" lon="11.3825621"><ele>10.25</ele><time>2026-05-04T17:17:17.45Z</time></trkpt><trkpt lat="44.8637865" lon="11.3823879"><ele>10.0</ele><time>2026-05-04T17:17:18.434Z</time></trkpt><trkpt lat="44.8637366" lon="11.3822099"><ele>10.0</ele><time>2026-05-04T17:17:19.465Z</time></trkpt><trkpt lat="44.8636872" lon="11.3820333"><ele>10.0</ele><time>2026-05-04T17:17:20.451Z</time></trkpt><trkpt lat="44.8636344" lon="11.3818556"><ele>10.0</ele><time>2026-05-04T17:17:21.444Z</time></trkpt><trkpt lat="44.8635821" lon="11.381685"><ele>10.0</ele><time>2026-05-04T17:17:22.405Z</time></trkpt><trkpt lat="44.8635248" lon="11.3815145"><ele>10.0</ele><time>2026-05-04T17:17:23.478Z</time></trkpt><trkpt lat="44.8634635" lon="11.3813535"><ele>10.0</ele><time>2026-05-04T17:17:24.456Z</time></trkpt><trkpt lat="44.8633925" lon="11.3811977"><ele>10.0</ele><time>2026-05-04T17:17:25.449Z</time></trkpt><trkpt lat="44.8633112" lon="11.3810577"><ele>10.0</ele><time>2026-05-04T17:17:26.445Z</time></trkpt><trkpt lat="44.8632159" lon="11.3809285"><ele>10.5</ele><time>2026-05-04T17:17:27.465Z</time></trkpt><trkpt lat="44.8631118" lon="11.3808085"><ele>11.0</ele><time>2026-05-04T17:17:28.451Z</time></trkpt><trkpt lat="44.8630012" lon="11.3807"><ele>11.5</ele><time>2026-05-04T17:17:29.47Z</time></trkpt><trkpt lat="44.8628782" lon="11.3806107"><ele>12.0</ele><time>2026-05-04T17:17:30.449Z</time></trkpt><trkpt lat="44.862752" lon="11.3805458"><ele>11.75</ele><time>2026-05-04T17:17:31.455Z</time></trkpt><trkpt lat="44.862625" lon="11.3804866"><ele>11.5</ele><time>2026-05-04T17:17:32.459Z</time></trkpt><trkpt lat="44.8624967" lon="11.3804264"><ele>11.25</ele><time>2026-05-04T17:17:33.466Z</time></trkpt><trkpt lat="44.8623754" lon="11.3803719"><ele>11.0</ele><time>2026-05-04T17:17:34.437Z</time></trkpt><trkpt lat="44.8622501" lon="11.3803165"><ele>11.0</ele><time>2026-05-04T17:17:35.405Z</time></trkpt><trkpt lat="44.8621218" lon="11.3802565"><ele>11.0</ele><time>2026-05-04T17:17:36.451Z</time></trkpt><trkpt lat="44.8619924" lon="11.380198"><ele>11.0</ele><time>2026-05-04T17:17:37.468Z</time></trkpt><trkpt lat="44.8618657" lon="11.38014"><ele>11.0</ele><time>2026-05-04T17:17:38.451Z</time></trkpt><trkpt lat="44.8617358" lon="11.3800793"><ele>11.25</ele><time>2026-05-04T17:17:39.441Z</time></trkpt><trkpt lat="44.8616064" lon="11.3800174"><ele>11.5</ele><time>2026-05-04T17:17:40.441Z</time></trkpt><trkpt lat="44.8614766" lon="11.3799629"><ele>11.75</ele><time>2026-05-04T17:17:41.441Z</time></trkpt><trkpt lat="44.8613481" lon="11.3799061"><ele>12.0</ele><time>2026-05-04T17:17:42.47Z</time></trkpt><trkpt lat="44.8612184" lon="11.3798527"><ele>12.0</ele><time>2026-05-04T17:17:43.448Z</time></trkpt><trkpt lat="44.8610903" lon="11.3797965"><ele>12.0</ele><time>2026-05-04T17:17:44.444Z</time></trkpt><trkpt lat="44.8609639" lon="11.3797368"><ele>12.0</ele><time>2026-05-04T17:17:45.453Z</time></trkpt><trkpt lat="44.8608409" lon="11.379678"><ele>12.0</ele><time>2026-05-04T17:17:46.45Z</time></trkpt><trkpt lat="44.8607165" lon="11.3796214"><ele>11.75</ele><time>2026-05-04T17:17:47.45Z</time></trkpt><trkpt lat="44.8605939" lon="11.3795665"><ele>11.5</ele><time>2026-05-04T17:17:48.438Z</time></trkpt><trkpt lat="44.8604701" lon="11.3795127"><ele>11.25</ele><time>2026-05-04T17:17:49.438Z</time></trkpt><trkpt lat="44.8603472" lon="11.3794541"><ele>11.0</ele><time>2026-05-04T17:17:50.433Z</time></trkpt><trkpt lat="44.8602232" lon="11.3793972"><ele>11.25</ele><time>2026-05-04T17:17:51.461Z</time></trkpt><trkpt lat="44.8600997" lon="11.3793404"><ele>11.5</ele><time>2026-05-04T17:17:52.454Z</time></trkpt><trkpt lat="44.8599746" lon="11.3792816"><ele>11.75</ele><time>2026-05-04T17:17:53.458Z</time></trkpt><trkpt lat="44.8598521" lon="11.3792248"><ele>12.0</ele><time>2026-05-04T17:17:54.431Z</time></trkpt><trkpt lat="44.8597242" lon="11.3791629"><ele>12.0</ele><time>2026-05-04T17:17:55.399Z</time></trkpt><trkpt lat="44.8596009" lon="11.379107"><ele>12.0</ele><time>2026-05-04T17:17:56.434Z</time></trkpt><trkpt lat="44.859475" lon="11.3790479"><ele>12.0</ele><time>2026-05-04T17:17:57.436Z</time></trkpt><trkpt lat="44.8593507" lon="11.3789917"><ele>12.0</ele><time>2026-05-04T17:17:58.44Z</time></trkpt><trkpt lat="44.8592261" lon="11.3789328"><ele>11.75</ele><time>2026-05-04T17:17:59.44Z</time></trkpt><trkpt lat="44.8591017" lon="11.3788711"><ele>11.5</ele><time>2026-05-04T17:18:00.445Z</time></trkpt><trkpt lat="44.8589764" lon="11.3788156"><ele>11.25</ele><time>2026-05-04T17:18:01.454Z</time></trkpt><trkpt lat="44.8588505" lon="11.3787587"><ele>11.0</ele><time>2026-05-04T17:18:02.447Z</time></trkpt><trkpt lat="44.858725" lon="11.3787009"><ele>11.25</ele><time>2026-05-04T17:18:03.478Z</time></trkpt><trkpt lat="44.8586004" lon="11.3786423"><ele>11.5</ele><time>2026-05-04T17:18:04.451Z</time></trkpt><trkpt lat="44.8584756" lon="11.3785841"><ele>11.75</ele><time>2026-05-04T17:18:05.451Z</time></trkpt><trkpt lat="44.8583533" lon="11.3785216"><ele>12.0</ele><time>2026-05-04T17:18:06.449Z</time></trkpt><trkpt lat="44.8582359" lon="11.3784482"><ele>12.0</ele><time>2026-05-04T17:18:07.461Z</time></trkpt><trkpt lat="44.8581264" lon="11.378358"><ele>12.0</ele><time>2026-05-04T17:18:08.473Z</time></trkpt><trkpt lat="44.8580217" lon="11.3782559"><ele>12.0</ele><time>2026-05-04T17:18:09.464Z</time></trkpt><trkpt lat="44.8579213" lon="11.3781324"><ele>12.0</ele><time>2026-05-04T17:18:10.457Z</time></trkpt><trkpt lat="44.8578316" lon="11.3779973"><ele>11.75</ele><time>2026-05-04T17:18:11.465Z</time></trkpt><trkpt lat="44.8577546" lon="11.3778524"><ele>11.5</ele><time>2026-05-04T17:18:12.468Z</time></trkpt><trkpt lat="44.8576874" lon="11.3776928"><ele>11.25</ele><time>2026-05-04T17:18:13.458Z</time></trkpt><trkpt lat="44.8576253" lon="11.3775325"><ele>11.0</ele><time>2026-05-04T17:18:14.453Z</time></trkpt><trkpt lat="44.8575687" lon="11.3773737"><ele>11.0</ele><time>2026-05-04T17:18:15.487Z</time></trkpt><trkpt lat="44.8575154" lon="11.3772127"><ele>11.0</ele><time>2026-05-04T17:18:16.452Z</time></trkpt><trkpt lat="44.8574618" lon="11.3770458"><ele>11.0</ele><time>2026-05-04T17:18:17.482Z</time></trkpt><trkpt lat="44.8574079" lon="11.3768793"><ele>11.0</ele><time>2026-05-04T17:18:18.46Z</time></trkpt><trkpt lat="44.8573541" lon="11.3767136"><ele>10.75</ele><time>2026-05-04T17:18:19.48Z</time></trkpt><trkpt lat="44.857297" lon="11.3765494"><ele>10.5</ele><time>2026-05-04T17:18:20.469Z</time></trkpt><trkpt lat="44.8572287" lon="11.3763882"><ele>10.25</ele><time>2026-05-04T17:18:21.459Z</time></trkpt><trkpt lat="44.8571552" lon="11.3762341"><ele>10.0</ele><time>2026-05-04T17:18:22.468Z</time></trkpt><trkpt lat="44.8570738" lon="11.3760918"><ele>10.0</ele><time>2026-05-04T17:18:23.457Z</time></trkpt><trkpt lat="44.8569852" lon="11.3759608"><ele>10.0</ele><time>2026-05-04T17:18:24.467Z</time></trkpt><trkpt lat="44.856889" lon="11.3758327"><ele>10.0</ele><time>2026-05-04T17:18:25.469Z</time></trkpt><trkpt lat="44.8567908" lon="11.3757122"><ele>10.0</ele><time>2026-05-04T17:18:26.474Z</time></trkpt><trkpt lat="44.8566874" lon="11.3755976"><ele>9.75</ele><time>2026-05-04T17:18:27.435Z</time></trkpt><trkpt lat="44.856583" lon="11.3754955"><ele>9.5</ele><time>2026-05-04T17:18:28.452Z</time></trkpt><trkpt lat="44.8564737" lon="11.3754024"><ele>9.25</ele><time>2026-05-04T17:18:29.459Z</time></trkpt><trkpt lat="44.8563643" lon="11.3753188"><ele>9.0</ele><time>2026-05-04T17:18:30.462Z</time></trkpt><trkpt lat="44.8562426" lon="11.3752484"><ele>9.0</ele><time>2026-05-04T17:18:31.52Z</time></trkpt><trkpt lat="44.8561155" lon="11.3751933"><ele>9.0</ele><time>2026-05-04T17:18:32.447Z</time></trkpt><trkpt lat="44.8559865" lon="11.3751432"><ele>9.0</ele><time>2026-05-04T17:18:33.459Z</time></trkpt><trkpt lat="44.8558562" lon="11.3750893"><ele>9.0</ele><time>2026-05-04T17:18:34.462Z</time></trkpt><trkpt lat="44.855729" lon="11.3750419"><ele>9.5</ele><time>2026-05-04T17:18:35.414Z</time></trkpt><trkpt lat="44.855599" lon="11.3749907"><ele>10.0</ele><time>2026-05-04T17:18:36.401Z</time></trkpt><trkpt lat="44.8554665" lon="11.37494"><ele>10.5</ele><time>2026-05-04T17:18:37.419Z</time></trkpt><trkpt lat="44.8553354" lon="11.3748933"><ele>11.0</ele><time>2026-05-04T17:18:38.446Z</time></trkpt><trkpt lat="44.8552085" lon="11.3748467"><ele>11.25</ele><time>2026-05-04T17:18:39.458Z</time></trkpt><trkpt lat="44.8550802" lon="11.3748037"><ele>11.5</ele><time>2026-05-04T17:18:40.446Z</time></trkpt><trkpt lat="44.8549504" lon="11.3747578"><ele>11.75</ele><time>2026-05-04T17:18:41.449Z</time></trkpt><trkpt lat="44.8548186" lon="11.3747106"><ele>12.0</ele><time>2026-05-04T17:18:42.458Z</time></trkpt><trkpt lat="44.8546871" lon="11.374664"><ele>11.5</ele><time>2026-05-04T17:18:43.437Z</time></trkpt><trkpt lat="44.8545568" lon="11.3746141"><ele>11.0</ele><time>2026-05-04T17:18:44.465Z</time></trkpt><trkpt lat="44.8544265" lon="11.374567"><ele>10.5</ele><time>2026-05-04T17:18:45.455Z</time></trkpt><trkpt lat="44.854296" lon="11.3745204"><ele>10.0</ele><time>2026-05-04T17:18:46.454Z</time></trkpt><trkpt lat="44.8541649" lon="11.3744703"><ele>10.0</ele><time>2026-05-04T17:18:47.45Z</time></trkpt><trkpt lat="44.8540344" lon="11.3744166"><ele>10.0</ele><time>2026-05-04T17:18:48.462Z</time></trkpt><trkpt lat="44.853907" lon="11.3743643"><ele>10.0</ele><time>2026-05-04T17:18:49.482Z</time></trkpt><trkpt lat="44.8537753" lon="11.374315"><ele>10.0</ele><time>2026-05-04T17:18:50.477Z</time></trkpt><trkpt lat="44.8536444" lon="11.3742666"><ele>10.0</ele><time>2026-05-04T17:18:51.458Z</time></trkpt><trkpt lat="44.8535146" lon="11.3742167"><ele>10.0</ele><time>2026-05-04T17:18:52.456Z</time></trkpt><trkpt lat="44.8533855" lon="11.3741674"><ele>10.0</ele><time>2026-05-04T17:18:53.48Z</time></trkpt><trkpt lat="44.853256" lon="11.3741196"><ele>10.0</ele><time>2026-05-04T17:18:54.467Z</time></trkpt><trkpt lat="44.8531264" lon="11.3740682"><ele>10.0</ele><time>2026-05-04T17:18:55.465Z</time></trkpt><trkpt lat="44.8529948" lon="11.3740157"><ele>10.0</ele><time>2026-05-04T17:18:56.467Z</time></trkpt><trkpt lat="44.8528655" lon="11.3739668"><ele>10.0</ele><time>2026-05-04T17:18:57.483Z</time></trkpt><trkpt lat="44.852735" lon="11.3739119"><ele>10.0</ele><time>2026-05-04T17:18:58.48Z</time></trkpt><trkpt lat="44.8526093" lon="11.3738453"><ele>9.5</ele><time>2026-05-04T17:18:59.47Z</time></trkpt><trkpt lat="44.852487" lon="11.3737679"><ele>9.0</ele><time>2026-05-04T17:19:00.461Z</time></trkpt><trkpt lat="44.8523674" lon="11.3736826"><ele>8.5</ele><time>2026-05-04T17:19:01.444Z</time></trkpt><trkpt lat="44.8522504" lon="11.3735925"><ele>8.0</ele><time>2026-05-04T17:19:02.47Z</time></trkpt><trkpt lat="44.8521315" lon="11.3734975"><ele>8.0</ele><time>2026-05-04T17:19:03.474Z</time></trkpt><trkpt lat="44.8520138" lon="11.3734063"><ele>8.0</ele><time>2026-05-04T17:19:04.446Z</time></trkpt><trkpt lat="44.8519013" lon="11.3733146"><ele>8.0</ele><time>2026-05-04T17:19:05.465Z</time></trkpt><trkpt lat="44.8517928" lon="11.3732247"><ele>8.0</ele><time>2026-05-04T17:19:06.456Z</time></trkpt><trkpt lat="44.8516794" lon="11.3731307"><ele>8.25</ele><time>2026-05-04T17:19:07.467Z</time></trkpt><trkpt lat="44.8515743" lon="11.3730436"><ele>8.5</ele><time>2026-05-04T17:19:08.471Z</time></trkpt><trkpt lat="44.8514659" lon="11.3729628"><ele>8.75</ele><time>2026-05-04T17:19:09.449Z</time></trkpt><trkpt lat="44.8513606" lon="11.3728806"><ele>9.0</ele><time>2026-05-04T17:19:10.451Z</time></trkpt><trkpt lat="44.8512563" lon="11.3728016"><ele>9.0</ele><time>2026-05-04T17:19:11.449Z</time></trkpt><trkpt lat="44.8511543" lon="11.3727115"><ele>9.0</ele><time>2026-05-04T17:19:12.448Z</time></trkpt><trkpt lat="44.8510559" lon="11.3726076"><ele>9.0</ele><time>2026-05-04T17:19:13.472Z</time></trkpt><trkpt lat="44.8509706" lon="11.372485"><ele>9.0</ele><time>2026-05-04T17:19:14.453Z</time></trkpt><trkpt lat="44.8508842" lon="11.372348"><ele>9.25</ele><time>2026-05-04T17:19:15.483Z</time></trkpt><trkpt lat="44.8508112" lon="11.3722028"><ele>9.5</ele><time>2026-05-04T17:19:16.454Z</time></trkpt><trkpt lat="44.8507491" lon="11.3720546"><ele>9.75</ele><time>2026-05-04T17:19:17.468Z</time></trkpt><trkpt lat="44.850695" lon="11.3718953"><ele>10.0</ele><time>2026-05-04T17:19:18.458Z</time></trkpt><trkpt lat="44.8506407" lon="11.3717368"><ele>10.0</ele><time>2026-05-04T17:19:19.458Z</time></trkpt><trkpt lat="44.8505852" lon="11.3715826"><ele>10.0</ele><time>2026-05-04T17:19:20.439Z</time></trkpt><trkpt lat="44.850537" lon="11.3714416"><ele>10.0</ele><time>2026-05-04T17:19:21.466Z</time></trkpt><trkpt lat="44.8504981" lon="11.3713287"><ele>10.0</ele><time>2026-05-04T17:19:22.461Z</time></trkpt><trkpt lat="44.8504654" lon="11.3712423"><ele>10.0</ele><time>2026-05-04T17:19:23.453Z</time></trkpt><trkpt lat="44.8503877" lon="11.371154"><ele>10.0</ele><time>2026-05-04T17:19:25.462Z</time></trkpt><trkpt lat="44.8502845" lon="11.3711872"><ele>10.0</ele><time>2026-05-04T17:19:27.469Z</time></trkpt><trkpt lat="44.8501977" lon="11.3712279"><ele>10.0</ele><time>2026-05-04T17:19:29.456Z</time></trkpt><trkpt lat="44.850115" lon="11.3712649"><ele>10.0</ele><time>2026-05-04T17:19:31.468Z</time></trkpt><trkpt lat="44.8500098" lon="11.3713029"><ele>10.0</ele><time>2026-05-04T17:19:33.446Z</time></trkpt><trkpt lat="44.8499019" lon="11.3713368"><ele>10.0</ele><time>2026-05-04T17:19:35.401Z</time></trkpt><trkpt lat="44.8497997" lon="11.371363"><ele>10.0</ele><time>2026-05-04T17:19:37.44Z</time></trkpt><trkpt lat="44.8496929" lon="11.3714052"><ele>10.0</ele><time>2026-05-04T17:19:39.418Z</time></trkpt><trkpt lat="44.8496225" lon="11.3714363"><ele>10.0</ele><time>2026-05-04T17:19:40.402Z</time></trkpt><trkpt lat="44.8495409" lon="11.3714651"><ele>10.0</ele><time>2026-05-04T17:19:41.452Z</time></trkpt><trkpt lat="44.8494555" lon="11.3714918"><ele>10.0</ele><time>2026-05-04T17:19:42.434Z</time></trkpt><trkpt lat="44.8493725" lon="11.3715306"><ele>10.0</ele><time>2026-05-04T17:19:43.407Z</time></trkpt><trkpt lat="44.8492878" lon="11.3715681"><ele>10.0</ele><time>2026-05-04T17:19:44.422Z</time></trkpt><trkpt lat="44.8492002" lon="11.3715975"><ele>10.0</ele><time>2026-05-04T17:19:45.414Z</time></trkpt><trkpt lat="44.8491096" lon="11.3716228"><ele>10.0</ele><time>2026-05-04T17:19:46.421Z</time></trkpt><trkpt lat="44.849017" lon="11.3716528"><ele>9.8</ele><time>2026-05-04T17:19:47.445Z</time></trkpt><trkpt lat="44.8489172" lon="11.3716866"><ele>9.6</ele><time>2026-05-04T17:19:48.459Z</time></trkpt><trkpt lat="44.8488152" lon="11.3717238"><ele>9.4</ele><time>2026-05-04T17:19:49.407Z</time></trkpt><trkpt lat="44.8487097" lon="11.3717699"><ele>9.2</ele><time>2026-05-04T17:19:50.425Z</time></trkpt><trkpt lat="44.8485982" lon="11.3718127"><ele>9.0</ele><time>2026-05-04T17:19:51.446Z</time></trkpt><trkpt lat="44.8484839" lon="11.3718512"><ele>8.75</ele><time>2026-05-04T17:19:52.448Z</time></trkpt><trkpt lat="44.8483699" lon="11.3718906"><ele>8.5</ele><time>2026-05-04T17:19:53.453Z</time></trkpt><trkpt lat="44.8482521" lon="11.371927"><ele>8.25</ele><time>2026-05-04T17:19:54.447Z</time></trkpt><trkpt lat="44.848133" lon="11.3719664"><ele>8.0</ele><time>2026-05-04T17:19:55.455Z</time></trkpt><trkpt lat="44.8480131" lon="11.3720086"><ele>8.0</ele><time>2026-05-04T17:19:56.446Z</time></trkpt><trkpt lat="44.8478923" lon="11.3720538"><ele>8.0</ele><time>2026-05-04T17:19:57.455Z</time></trkpt><trkpt lat="44.8477657" lon="11.3720988"><ele>8.0</ele><time>2026-05-04T17:19:58.465Z</time></trkpt><trkpt lat="44.8476406" lon="11.3721391"><ele>8.0</ele><time>2026-05-04T17:19:59.457Z</time></trkpt><trkpt lat="44.8475156" lon="11.3721792"><ele>7.75</ele><time>2026-05-04T17:20:00.457Z</time></trkpt><trkpt lat="44.8473902" lon="11.3722184"><ele>7.5</ele><time>2026-05-04T17:20:01.462Z</time></trkpt><trkpt lat="44.8472641" lon="11.3722602"><ele>7.25</ele><time>2026-05-04T17:20:02.446Z</time></trkpt><trkpt lat="44.8471376" lon="11.372303"><ele>7.0</ele><time>2026-05-04T17:20:03.471Z</time></trkpt><trkpt lat="44.8470102" lon="11.3723447"><ele>7.0</ele><time>2026-05-04T17:20:04.424Z</time></trkpt><trkpt lat="44.8468813" lon="11.3723852"><ele>7.0</ele><time>2026-05-04T17:20:05.42Z</time></trkpt><trkpt lat="44.8467561" lon="11.3724272"><ele>7.0</ele><time>2026-05-04T17:20:06.446Z</time></trkpt><trkpt lat="44.8466258" lon="11.37247"><ele>7.0</ele><time>2026-05-04T17:20:07.456Z</time></trkpt><trkpt lat="44.8464991" lon="11.3725139"><ele>7.0</ele><time>2026-05-04T17:20:08.447Z</time></trkpt><trkpt lat="44.8463709" lon="11.3725612"><ele>7.0</ele><time>2026-05-04T17:20:09.442Z</time></trkpt><trkpt lat="44.8462427" lon="11.3726044"><ele>7.0</ele><time>2026-05-04T17:20:10.448Z</time></trkpt><trkpt lat="44.8461156" lon="11.372646"><ele>7.0</ele><time>2026-05-04T17:20:11.458Z</time></trkpt><trkpt lat="44.8459856" lon="11.3726925"><ele>7.5</ele><time>2026-05-04T17:20:12.463Z</time></trkpt><trkpt lat="44.8458561" lon="11.3727313"><ele>8.0</ele><time>2026-05-04T17:20:13.459Z</time></trkpt><trkpt lat="44.8457273" lon="11.3727712"><ele>8.5</ele><time>2026-05-04T17:20:14.424Z</time></trkpt><trkpt lat="44.8455975" lon="11.37281"><ele>9.0</ele><time>2026-05-04T17:20:15.435Z</time></trkpt><trkpt lat="44.8454687" lon="11.3728566"><ele>9.0</ele><time>2026-05-04T17:20:16.453Z</time></trkpt><trkpt lat="44.8453418" lon="11.3729015"><ele>9.0</ele><time>2026-05-04T17:20:17.404Z</time></trkpt><trkpt lat="44.8452148" lon="11.3729424"><ele>9.0</ele><time>2026-05-04T17:20:18.442Z</time></trkpt><trkpt lat="44.8450872" lon="11.3729879"><ele>9.0</ele><time>2026-05-04T17:20:19.469Z</time></trkpt><trkpt lat="44.8449609" lon="11.3730311"><ele>8.75</ele><time>2026-05-04T17:20:20.457Z</time></trkpt><trkpt lat="44.8448349" lon="11.3730699"><ele>8.5</ele><time>2026-05-04T17:20:21.454Z</time></trkpt><trkpt lat="44.8447065" lon="11.373116"><ele>8.25</ele><time>2026-05-04T17:20:22.471Z</time></trkpt><trkpt lat="44.8445825" lon="11.3731575"><ele>8.0</ele><time>2026-05-04T17:20:23.462Z</time></trkpt><trkpt lat="44.8444572" lon="11.3731975"><ele>8.0</ele><time>2026-05-04T17:20:24.443Z</time></trkpt><trkpt lat="44.844329" lon="11.373242"><ele>8.0</ele><time>2026-05-04T17:20:25.445Z</time></trkpt><trkpt lat="44.8442028" lon="11.3732888"><ele>8.0</ele><time>2026-05-04T17:20:26.454Z</time></trkpt><trkpt lat="44.8440741" lon="11.3733363"><ele>8.0</ele><time>2026-05-04T17:20:27.452Z</time></trkpt><trkpt lat="44.8439479" lon="11.37338"><ele>8.0</ele><time>2026-05-04T17:20:28.444Z</time></trkpt><trkpt lat="44.8438195" lon="11.373426"><ele>8.0</ele><time>2026-05-04T17:20:29.453Z</time></trkpt><trkpt lat="44.8436895" lon="11.3734677"><ele>8.0</ele><time>2026-05-04T17:20:30.445Z</time></trkpt><trkpt lat="44.8435587" lon="11.3735113"><ele>8.0</ele><time>2026-05-04T17:20:31.448Z</time></trkpt><trkpt lat="44.8434277" lon="11.37356"><ele>7.25</ele><time>2026-05-04T17:20:32.434Z</time></trkpt><trkpt lat="44.8432976" lon="11.3736021"><ele>6.5</ele><time>2026-05-04T17:20:33.454Z</time></trkpt><trkpt lat="44.8431655" lon="11.3736466"><ele>5.75</ele><time>2026-05-04T17:20:34.447Z</time></trkpt><trkpt lat="44.8430363" lon="11.3736894"><ele>5.0</ele><time>2026-05-04T17:20:35.409Z</time></trkpt><trkpt lat="44.8429105" lon="11.3737349"><ele>5.0</ele><time>2026-05-04T17:20:36.439Z</time></trkpt><trkpt lat="44.8427814" lon="11.3737804"><ele>5.0</ele><time>2026-05-04T17:20:37.463Z</time></trkpt><trkpt lat="44.8426506" lon="11.3738229"><ele>5.0</ele><time>2026-05-04T17:20:38.418Z</time></trkpt><trkpt lat="44.8425208" lon="11.3738648"><ele>5.0</ele><time>2026-05-04T17:20:39.486Z</time></trkpt><trkpt lat="44.8423921" lon="11.3739069"><ele>5.25</ele><time>2026-05-04T17:20:40.453Z</time></trkpt><trkpt lat="44.8422628" lon="11.3739507"><ele>5.5</ele><time>2026-05-04T17:20:41.423Z</time></trkpt><trkpt lat="44.842134" lon="11.3739984"><ele>5.75</ele><time>2026-05-04T17:20:42.462Z</time></trkpt><trkpt lat="44.8420032" lon="11.3740446"><ele>6.0</ele><time>2026-05-04T17:20:43.447Z</time></trkpt><trkpt lat="44.8418765" lon="11.3740873"><ele>6.5</ele><time>2026-05-04T17:20:44.422Z</time></trkpt><trkpt lat="44.8417493" lon="11.3741286"><ele>7.0</ele><time>2026-05-04T17:20:45.441Z</time></trkpt><trkpt lat="44.8416203" lon="11.3741729"><ele>7.5</ele><time>2026-05-04T17:20:46.442Z</time></trkpt><trkpt lat="44.841495" lon="11.3742124"><ele>8.0</ele><time>2026-05-04T17:20:47.454Z</time></trkpt><trkpt lat="44.841368" lon="11.3742556"><ele>8.0</ele><time>2026-05-04T17:20:48.455Z</time></trkpt><trkpt lat="44.8412485" lon="11.3742966"><ele>8.0</ele><time>2026-05-04T17:20:49.453Z</time></trkpt><trkpt lat="44.8411339" lon="11.3743419"><ele>8.0</ele><time>2026-05-04T17:20:50.397Z</time></trkpt><trkpt lat="44.8410235" lon="11.37438"><ele>8.0</ele><time>2026-05-04T17:20:51.454Z</time></trkpt><trkpt lat="44.8409152" lon="11.3744161"><ele>8.166666666666666</ele><time>2026-05-04T17:20:52.451Z</time></trkpt><trkpt lat="44.8408144" lon="11.3744457"><ele>8.333333333333332</ele><time>2026-05-04T17:20:53.442Z</time></trkpt><trkpt lat="44.8407183" lon="11.3744713"><ele>8.5</ele><time>2026-05-04T17:20:54.473Z</time></trkpt><trkpt lat="44.840633" lon="11.3744963"><ele>8.666666666666666</ele><time>2026-05-04T17:20:55.451Z</time></trkpt><trkpt lat="44.8405526" lon="11.3745244"><ele>8.833333333333334</ele><time>2026-05-04T17:20:56.402Z</time></trkpt><trkpt lat="44.840481" lon="11.3745633"><ele>9.0</ele><time>2026-05-04T17:20:57.446Z</time></trkpt><trkpt lat="44.84042" lon="11.3746074"><ele>9.0</ele><time>2026-05-04T17:20:58.44Z</time></trkpt><trkpt lat="44.8403402" lon="11.3747326"><ele>9.0</ele><time>2026-05-04T17:21:00.428Z</time></trkpt><trkpt lat="44.8403206" lon="11.3748183"><ele>9.0</ele><time>2026-05-04T17:21:01.429Z</time></trkpt><trkpt lat="44.8403346" lon="11.3749958"><ele>9.0</ele><time>2026-05-04T17:21:03.424Z</time></trkpt><trkpt lat="44.84036" lon="11.3751006"><ele>9.0</ele><time>2026-05-04T17:21:04.412Z</time></trkpt><trkpt lat="44.8403919" lon="11.3752106"><ele>9.0</ele><time>2026-05-04T17:21:05.404Z</time></trkpt><trkpt lat="44.8404151" lon="11.3753261"><ele>9.0</ele><time>2026-05-04T17:21:06.46Z</time></trkpt><trkpt lat="44.840443" lon="11.3754396"><ele>9.0</ele><time>2026-05-04T17:21:07.416Z</time></trkpt><trkpt lat="44.840462" lon="11.3755638"><ele>9.0</ele><time>2026-05-04T17:21:08.408Z</time></trkpt><trkpt lat="44.8404861" lon="11.3756959"><ele>9.0</ele><time>2026-05-04T17:21:09.43Z</time></trkpt><trkpt lat="44.8405101" lon="11.37583"><ele>8.8</ele><time>2026-05-04T17:21:10.458Z</time></trkpt><trkpt lat="44.8405313" lon="11.3759736"><ele>8.600000000000001</ele><time>2026-05-04T17:21:11.435Z</time></trkpt><trkpt lat="44.8405411" lon="11.3761298"><ele>8.4</ele><time>2026-05-04T17:21:12.451Z</time></trkpt><trkpt lat="44.840537" lon="11.3762901"><ele>8.200000000000001</ele><time>2026-05-04T17:21:13.444Z</time></trkpt><trkpt lat="44.8405259" lon="11.3764573"><ele>8.0</ele><time>2026-05-04T17:21:14.423Z</time></trkpt><trkpt lat="44.8405005" lon="11.3766251"><ele>8.0</ele><time>2026-05-04T17:21:15.454Z</time></trkpt><trkpt lat="44.8404669" lon="11.376789"><ele>8.0</ele><time>2026-05-04T17:21:16.442Z</time></trkpt><trkpt lat="44.8404328" lon="11.3769526"><ele>8.0</ele><time>2026-05-04T17:21:17.433Z</time></trkpt><trkpt lat="44.8403997" lon="11.3771197"><ele>8.0</ele><time>2026-05-04T17:21:18.437Z</time></trkpt><trkpt lat="44.840364" lon="11.3772741"><ele>8.0</ele><time>2026-05-04T17:21:19.455Z</time></trkpt><trkpt lat="44.8403267" lon="11.3774154"><ele>8.0</ele><time>2026-05-04T17:21:20.419Z</time></trkpt><trkpt lat="44.8402823" lon="11.3775464"><ele>8.0</ele><time>2026-05-04T17:21:21.442Z</time></trkpt><trkpt lat="44.8402198" lon="11.3776592"><ele>8.0</ele><time>2026-05-04T17:21:22.446Z</time></trkpt><trkpt lat="44.8401387" lon="11.3777415"><ele>8.0</ele><time>2026-05-04T17:21:23.43Z</time></trkpt><trkpt lat="44.8400401" lon="11.3778057"><ele>8.25</ele><time>2026-05-04T17:21:24.421Z</time></trkpt><trkpt lat="44.839935" lon="11.3778332"><ele>8.5</ele><time>2026-05-04T17:21:25.426Z</time></trkpt><trkpt lat="44.8398265" lon="11.3778385"><ele>8.75</ele><time>2026-05-04T17:21:26.44Z</time></trkpt><trkpt lat="44.8397076" lon="11.3778414"><ele>9.0</ele><time>2026-05-04T17:21:27.448Z</time></trkpt><trkpt lat="44.8395889" lon="11.3778499"><ele>9.0</ele><time>2026-05-04T17:21:28.397Z</time></trkpt><trkpt lat="44.8394621" lon="11.3778641"><ele>9.0</ele><time>2026-05-04T17:21:29.476Z</time></trkpt><trkpt lat="44.8393378" lon="11.3778817"><ele>9.0</ele><time>2026-05-04T17:21:30.459Z</time></trkpt><trkpt lat="44.8392091" lon="11.3778957"><ele>9.0</ele><time>2026-05-04T17:21:31.461Z</time></trkpt><trkpt lat="44.8390772" lon="11.3779113"><ele>9.25</ele><time>2026-05-04T17:21:32.461Z</time></trkpt><trkpt lat="44.8389458" lon="11.377928"><ele>9.5</ele><time>2026-05-04T17:21:33.436Z</time></trkpt><trkpt lat="44.8388163" lon="11.3779489"><ele>9.75</ele><time>2026-05-04T17:21:34.467Z</time></trkpt><trkpt lat="44.8386872" lon="11.3779684"><ele>10.0</ele><time>2026-05-04T17:21:35.415Z</time></trkpt><trkpt lat="44.8385533" lon="11.3779834"><ele>10.0</ele><time>2026-05-04T17:21:36.452Z</time></trkpt><trkpt lat="44.8384224" lon="11.3779948"><ele>10.0</ele><time>2026-05-04T17:21:37.471Z</time></trkpt><trkpt lat="44.8382914" lon="11.3780098"><ele>10.0</ele><time>2026-05-04T17:21:38.453Z</time></trkpt><trkpt lat="44.8381596" lon="11.3780234"><ele>10.0</ele><time>2026-05-04T17:21:39.469Z</time></trkpt><trkpt lat="44.8380276" lon="11.3780366"><ele>10.0</ele><time>2026-05-04T17:21:40.436Z</time></trkpt><trkpt lat="44.8378913" lon="11.378055"><ele>10.0</ele><time>2026-05-04T17:21:41.472Z</time></trkpt><trkpt lat="44.8377606" lon="11.3780741"><ele>10.0</ele><time>2026-05-04T17:21:42.444Z</time></trkpt><trkpt lat="44.8376278" lon="11.3780909"><ele>10.0</ele><time>2026-05-04T17:21:43.429Z</time></trkpt><trkpt lat="44.8374978" lon="11.378105"><ele>10.25</ele><time>2026-05-04T17:21:44.423Z</time></trkpt><trkpt lat="44.8373675" lon="11.3781228"><ele>10.5</ele><time>2026-05-04T17:21:45.45Z</time></trkpt><trkpt lat="44.8372377" lon="11.3781373"><ele>10.75</ele><time>2026-05-04T17:21:46.445Z</time></trkpt><trkpt lat="44.8371064" lon="11.3781507"><ele>11.0</ele><time>2026-05-04T17:21:47.459Z</time></trkpt><trkpt lat="44.8369739" lon="11.3781668"><ele>11.0</ele><time>2026-05-04T17:21:48.439Z</time></trkpt><trkpt lat="44.8368464" lon="11.3781823"><ele>11.0</ele><time>2026-05-04T17:21:49.446Z</time></trkpt><trkpt lat="44.8367165" lon="11.3781994"><ele>11.0</ele><time>2026-05-04T17:21:50.401Z</time></trkpt><trkpt lat="44.8365897" lon="11.3782131"><ele>11.0</ele><time>2026-05-04T17:21:51.447Z</time></trkpt><trkpt lat="44.8364619" lon="11.378229"><ele>11.0</ele><time>2026-05-04T17:21:52.411Z</time></trkpt><trkpt lat="44.8363343" lon="11.3782407"><ele>11.0</ele><time>2026-05-04T17:21:53.423Z</time></trkpt><trkpt lat="44.8362075" lon="11.3782528"><ele>11.0</ele><time>2026-05-04T17:21:54.436Z</time></trkpt><trkpt lat="44.8360784" lon="11.3782655"><ele>11.0</ele><time>2026-05-04T17:21:55.425Z</time></trkpt><trkpt lat="44.8359519" lon="11.3782792"><ele>11.0</ele><time>2026-05-04T17:21:56.42Z</time></trkpt><trkpt lat="44.8358283" lon="11.378292"><ele>11.0</ele><time>2026-05-04T17:21:57.459Z</time></trkpt><trkpt lat="44.8357109" lon="11.3783018"><ele>11.0</ele><time>2026-05-04T17:21:58.404Z</time></trkpt><trkpt lat="44.8355987" lon="11.3783135"><ele>11.0</ele><time>2026-05-04T17:21:59.425Z</time></trkpt><trkpt lat="44.8354883" lon="11.3783212"><ele>11.0</ele><time>2026-05-04T17:22:00.429Z</time></trkpt><trkpt lat="44.8353764" lon="11.378331"><ele>11.0</ele><time>2026-05-04T17:22:01.474Z</time></trkpt><trkpt lat="44.8352631" lon="11.3783491"><ele>11.0</ele><time>2026-05-04T17:22:02.434Z</time></trkpt><trkpt lat="44.8351477" lon="11.3783661"><ele>11.0</ele><time>2026-05-04T17:22:03.426Z</time></trkpt><trkpt lat="44.8350325" lon="11.3783836"><ele>11.25</ele><time>2026-05-04T17:22:04.443Z</time></trkpt><trkpt lat="44.8349141" lon="11.3783973"><ele>11.5</ele><time>2026-05-04T17:22:05.458Z</time></trkpt><trkpt lat="44.8347955" lon="11.3784085"><ele>11.75</ele><time>2026-05-04T17:22:06.445Z</time></trkpt><trkpt lat="44.8346794" lon="11.37842"><ele>12.0</ele><time>2026-05-04T17:22:07.446Z</time></trkpt><trkpt lat="44.8345659" lon="11.3784338"><ele>12.0</ele><time>2026-05-04T17:22:08.453Z</time></trkpt><trkpt lat="44.8344536" lon="11.3784517"><ele>12.0</ele><time>2026-05-04T17:22:09.476Z</time></trkpt><trkpt lat="44.834341" lon="11.3784647"><ele>12.0</ele><time>2026-05-04T17:22:10.478Z</time></trkpt><trkpt lat="44.8342296" lon="11.3784771"><ele>12.0</ele><time>2026-05-04T17:22:11.472Z</time></trkpt><trkpt lat="44.8341212" lon="11.3784894"><ele>12.0</ele><time>2026-05-04T17:22:12.464Z</time></trkpt><trkpt lat="44.8340141" lon="11.3785038"><ele>12.166666666666666</ele><time>2026-05-04T17:22:13.42Z</time></trkpt><trkpt lat="44.8339127" lon="11.378509"><ele>12.333333333333332</ele><time>2026-05-04T17:22:14.442Z</time></trkpt><trkpt lat="44.8338195" lon="11.3785191"><ele>12.5</ele><time>2026-05-04T17:22:15.427Z</time></trkpt><trkpt lat="44.833731" lon="11.3785293"><ele>12.666666666666666</ele><time>2026-05-04T17:22:16.449Z</time></trkpt><trkpt lat="44.8336538" lon="11.3785367"><ele>12.833333333333332</ele><time>2026-05-04T17:22:17.455Z</time></trkpt><trkpt lat="44.8335847" lon="11.3785453"><ele>13.0</ele><time>2026-05-04T17:22:18.467Z</time></trkpt><trkpt lat="44.8334769" lon="11.3785589"><ele>13.0</ele><time>2026-05-04T17:22:20.456Z</time></trkpt><trkpt lat="44.8334033" lon="11.3785395"><ele>13.0</ele><time>2026-05-04T17:22:22.427Z</time></trkpt><trkpt lat="44.8333533" lon="11.378427"><ele>13.0</ele><time>2026-05-04T17:22:25.458Z</time></trkpt><trkpt lat="44.833351" lon="11.3782677"><ele>13.0</ele><time>2026-05-04T17:22:27.464Z</time></trkpt><trkpt lat="44.8333621" lon="11.378069"><ele>13.0</ele><time>2026-05-04T17:22:29.414Z</time></trkpt><trkpt lat="44.8333731" lon="11.3779521"><ele>12.999999999999998</ele><time>2026-05-04T17:22:30.472Z</time></trkpt><trkpt lat="44.833389" lon="11.3778351"><ele>13.0</ele><time>2026-05-04T17:22:31.45Z</time></trkpt><trkpt lat="44.8334085" lon="11.377726"><ele>13.0</ele><time>2026-05-04T17:22:32.454Z</time></trkpt><trkpt lat="44.8334338" lon="11.3776138"><ele>13.0</ele><time>2026-05-04T17:22:33.439Z</time></trkpt><trkpt lat="44.8334676" lon="11.3774946"><ele>12.999999999999998</ele><time>2026-05-04T17:22:34.455Z</time></trkpt><trkpt lat="44.83351" lon="11.3773779"><ele>13.0</ele><time>2026-05-04T17:22:35.402Z</time></trkpt><trkpt lat="44.8335586" lon="11.3772551"><ele>13.0</ele><time>2026-05-04T17:22:36.437Z</time></trkpt><trkpt lat="44.8336101" lon="11.3771267"><ele>13.0</ele><time>2026-05-04T17:22:37.454Z</time></trkpt><trkpt lat="44.8336639" lon="11.3770018"><ele>13.0</ele><time>2026-05-04T17:22:38.452Z</time></trkpt><trkpt lat="44.8337261" lon="11.3768847"><ele>13.0</ele><time>2026-05-04T17:22:39.463Z</time></trkpt><trkpt lat="44.8337894" lon="11.3767686"><ele>13.0</ele><time>2026-05-04T17:22:40.422Z</time></trkpt><trkpt lat="44.8338604" lon="11.3766588"><ele>13.0</ele><time>2026-05-04T17:22:41.462Z</time></trkpt><trkpt lat="44.8339505" lon="11.3765775"><ele>13.0</ele><time>2026-05-04T17:22:42.458Z</time></trkpt><trkpt lat="44.8340584" lon="11.3765419"><ele>13.0</ele><time>2026-05-04T17:22:43.438Z</time></trkpt><trkpt lat="44.8341696" lon="11.3765213"><ele>13.0</ele><time>2026-05-04T17:22:44.401Z</time></trkpt><trkpt lat="44.834283" lon="11.3764969"><ele>13.0</ele><time>2026-05-04T17:22:45.453Z</time></trkpt><trkpt lat="44.8343942" lon="11.3764646"><ele>12.8</ele><time>2026-05-04T17:22:46.468Z</time></trkpt><trkpt lat="44.834508" lon="11.3764269"><ele>12.600000000000001</ele><time>2026-05-04T17:22:47.44Z</time></trkpt><trkpt lat="44.8346081" lon="11.3763719"><ele>12.399999999999999</ele><time>2026-05-04T17:22:48.439Z</time></trkpt><trkpt lat="44.8346972" lon="11.3762894"><ele>12.2</ele><time>2026-05-04T17:22:49.45Z</time></trkpt><trkpt lat="44.8347817" lon="11.3761824"><ele>12.0</ele><time>2026-05-04T17:22:50.453Z</time></trkpt><trkpt lat="44.834864" lon="11.3760669"><ele>12.0</ele><time>2026-05-04T17:22:51.473Z</time></trkpt><trkpt lat="44.8349434" lon="11.3759479"><ele>12.0</ele><time>2026-05-04T17:22:52.447Z</time></trkpt><trkpt lat="44.8350252" lon="11.3758287"><ele>12.0</ele><time>2026-05-04T17:22:53.451Z</time></trkpt><trkpt lat="44.8350994" lon="11.3757077"><ele>12.0</ele><time>2026-05-04T17:22:54.445Z</time></trkpt><trkpt lat="44.8351766" lon="11.3755819"><ele>12.75</ele><time>2026-05-04T17:22:55.441Z</time></trkpt><trkpt lat="44.835249" lon="11.3754542"><ele>13.5</ele><time>2026-05-04T17:22:56.457Z</time></trkpt><trkpt lat="44.8353186" lon="11.3753379"><ele>14.25</ele><time>2026-05-04T17:22:57.469Z</time></trkpt><trkpt lat="44.835378" lon="11.3751999"><ele>15.0</ele><time>2026-05-04T17:22:58.472Z</time></trkpt><trkpt lat="44.8354203" lon="11.3750417"><ele>15.0</ele><time>2026-05-04T17:22:59.465Z</time></trkpt><trkpt lat="44.8354577" lon="11.374884"><ele>15.0</ele><time>2026-05-04T17:23:00.471Z</time></trkpt><trkpt lat="44.8354943" lon="11.374721"><ele>15.0</ele><time>2026-05-04T17:23:01.482Z</time></trkpt><trkpt lat="44.8355371" lon="11.3745605"><ele>15.0</ele><time>2026-05-04T17:23:02.45Z</time></trkpt><trkpt lat="44.8355844" lon="11.3744046"><ele>15.0</ele><time>2026-05-04T17:23:03.419Z</time></trkpt><trkpt lat="44.8356396" lon="11.3742579"><ele>15.0</ele><time>2026-05-04T17:23:04.44Z</time></trkpt><trkpt lat="44.8356974" lon="11.3741137"><ele>15.0</ele><time>2026-05-04T17:23:05.438Z</time></trkpt><trkpt lat="44.8357598" lon="11.3739739"><ele>15.0</ele><time>2026-05-04T17:23:06.461Z</time></trkpt><trkpt lat="44.8358281" lon="11.3738342"><ele>15.0</ele><time>2026-05-04T17:23:07.469Z</time></trkpt><trkpt lat="44.8358971" lon="11.3736967"><ele>15.0</ele><time>2026-05-04T17:23:08.443Z</time></trkpt><trkpt lat="44.8359659" lon="11.3735627"><ele>15.0</ele><time>2026-05-04T17:23:09.452Z</time></trkpt><trkpt lat="44.8360322" lon="11.3734142"><ele>15.0</ele><time>2026-05-04T17:23:10.41Z</time></trkpt><trkpt lat="44.8360952" lon="11.3732592"><ele>14.25</ele><time>2026-05-04T17:23:11.435Z</time></trkpt><trkpt lat="44.8361619" lon="11.3730992"><ele>13.5</ele><time>2026-05-04T17:23:12.462Z</time></trkpt><trkpt lat="44.8362245" lon="11.3729437"><ele>12.75</ele><time>2026-05-04T17:23:13.401Z</time></trkpt><trkpt lat="44.8362885" lon="11.3727841"><ele>12.0</ele><time>2026-05-04T17:23:14.449Z</time></trkpt><trkpt lat="44.836352" lon="11.3726307"><ele>12.0</ele><time>2026-05-04T17:23:15.436Z</time></trkpt><trkpt lat="44.8364111" lon="11.3724768"><ele>12.0</ele><time>2026-05-04T17:23:16.452Z</time></trkpt><trkpt lat="44.8364701" lon="11.3723208"><ele>12.0</ele><time>2026-05-04T17:23:17.452Z</time></trkpt><trkpt lat="44.8365309" lon="11.3721673"><ele>12.0</ele><time>2026-05-04T17:23:18.397Z</time></trkpt><trkpt lat="44.8365827" lon="11.3720189"><ele>12.0</ele><time>2026-05-04T17:23:19.455Z</time></trkpt><trkpt lat="44.8366291" lon="11.3718628"><ele>12.0</ele><time>2026-05-04T17:23:20.432Z</time></trkpt><trkpt lat="44.8366621" lon="11.3717077"><ele>12.0</ele><time>2026-05-04T17:23:21.464Z</time></trkpt><trkpt lat="44.8366679" lon="11.3715441"><ele>12.0</ele><time>2026-05-04T17:23:22.439Z</time></trkpt><trkpt lat="44.8366608" lon="11.3713803"><ele>12.25</ele><time>2026-05-04T17:23:23.418Z</time></trkpt><trkpt lat="44.8366422" lon="11.3712063"><ele>12.5</ele><time>2026-05-04T17:23:24.44Z</time></trkpt><trkpt lat="44.8366375" lon="11.3710288"><ele>12.75</ele><time>2026-05-04T17:23:25.473Z</time></trkpt><trkpt lat="44.8366551" lon="11.3708541"><ele>13.0</ele><time>2026-05-04T17:23:26.408Z</time></trkpt><trkpt lat="44.8366972" lon="11.3706817"><ele>13.0</ele><time>2026-05-04T17:23:27.444Z</time></trkpt><trkpt lat="44.8367514" lon="11.3705178"><ele>13.0</ele><time>2026-05-04T17:23:28.44Z</time></trkpt><trkpt lat="44.8368097" lon="11.3703562"><ele>13.0</ele><time>2026-05-04T17:23:29.461Z</time></trkpt><trkpt lat="44.8368691" lon="11.3701901"><ele>13.0</ele><time>2026-05-04T17:23:30.462Z</time></trkpt><trkpt lat="44.836926" lon="11.3700233"><ele>12.75</ele><time>2026-05-04T17:23:31.458Z</time></trkpt><trkpt lat="44.836964" lon="11.3698533"><ele>12.5</ele><time>2026-05-04T17:23:32.452Z</time></trkpt><trkpt lat="44.8369963" lon="11.3696777"><ele>12.25</ele><time>2026-05-04T17:23:33.466Z</time></trkpt><trkpt lat="44.8370213" lon="11.369503"><ele>12.0</ele><time>2026-05-04T17:23:34.431Z</time></trkpt><trkpt lat="44.8370389" lon="11.3693219"><ele>12.0</ele><time>2026-05-04T17:23:35.428Z</time></trkpt><trkpt lat="44.8370552" lon="11.36914"><ele>12.0</ele><time>2026-05-04T17:23:36.457Z</time></trkpt><trkpt lat="44.8370731" lon="11.3689555"><ele>12.0</ele><time>2026-05-04T17:23:37.441Z</time></trkpt><trkpt lat="44.8370944" lon="11.3687748"><ele>12.0</ele><time>2026-05-04T17:23:38.448Z</time></trkpt><trkpt lat="44.8371236" lon="11.3685948"><ele>12.25</ele><time>2026-05-04T17:23:39.483Z</time></trkpt><trkpt lat="44.837155" lon="11.3684174"><ele>12.5</ele><time>2026-05-04T17:23:40.453Z</time></trkpt><trkpt lat="44.8371901" lon="11.3682441"><ele>12.75</ele><time>2026-05-04T17:23:41.466Z</time></trkpt><trkpt lat="44.8372245" lon="11.3680677"><ele>13.0</ele><time>2026-05-04T17:23:42.45Z</time></trkpt><trkpt lat="44.8372606" lon="11.3679006"><ele>13.25</ele><time>2026-05-04T17:23:43.445Z</time></trkpt><trkpt lat="44.8372885" lon="11.3677359"><ele>13.5</ele><time>2026-05-04T17:23:44.46Z</time></trkpt><trkpt lat="44.8373142" lon="11.3675709"><ele>13.75</ele><time>2026-05-04T17:23:45.435Z</time></trkpt><trkpt lat="44.8373148" lon="11.367406"><ele>14.0</ele><time>2026-05-04T17:23:46.421Z</time></trkpt><trkpt lat="44.8372895" lon="11.3672443"><ele>13.75</ele><time>2026-05-04T17:23:47.459Z</time></trkpt><trkpt lat="44.8372334" lon="11.3670901"><ele>13.5</ele><time>2026-05-04T17:23:48.443Z</time></trkpt><trkpt lat="44.8371653" lon="11.3669393"><ele>13.25</ele><time>2026-05-04T17:23:49.444Z</time></trkpt><trkpt lat="44.837097" lon="11.3667874"><ele>13.0</ele><time>2026-05-04T17:23:50.438Z</time></trkpt><trkpt lat="44.8370273" lon="11.3666365"><ele>13.0</ele><time>2026-05-04T17:23:51.425Z</time></trkpt><trkpt lat="44.8369646" lon="11.3664764"><ele>13.0</ele><time>2026-05-04T17:23:52.46Z</time></trkpt><trkpt lat="44.836921" lon="11.3663022"><ele>13.0</ele><time>2026-05-04T17:23:53.465Z</time></trkpt><trkpt lat="44.8368982" lon="11.3661174"><ele>13.0</ele><time>2026-05-04T17:23:54.468Z</time></trkpt><trkpt lat="44.8368797" lon="11.3659363"><ele>13.0</ele><time>2026-05-04T17:23:55.476Z</time></trkpt><trkpt lat="44.8368655" lon="11.3657524"><ele>13.0</ele><time>2026-05-04T17:23:56.44Z</time></trkpt><trkpt lat="44.8368527" lon="11.365567"><ele>13.0</ele><time>2026-05-04T17:23:57.469Z</time></trkpt><trkpt lat="44.8368498" lon="11.3653819"><ele>13.0</ele><time>2026-05-04T17:23:58.445Z</time></trkpt><trkpt lat="44.83686" lon="11.3651961"><ele>13.0</ele><time>2026-05-04T17:23:59.45Z</time></trkpt><trkpt lat="44.8368883" lon="11.365019"><ele>13.0</ele><time>2026-05-04T17:24:00.459Z</time></trkpt><trkpt lat="44.8369299" lon="11.364847"><ele>13.0</ele><time>2026-05-04T17:24:01.446Z</time></trkpt><trkpt lat="44.8369892" lon="11.3646745"><ele>13.0</ele><time>2026-05-04T17:24:02.442Z</time></trkpt><trkpt lat="44.83706" lon="11.3645056"><ele>13.0</ele><time>2026-05-04T17:24:03.464Z</time></trkpt><trkpt lat="44.8371306" lon="11.3643494"><ele>13.0</ele><time>2026-05-04T17:24:04.427Z</time></trkpt><trkpt lat="44.8371991" lon="11.3641981"><ele>13.0</ele><time>2026-05-04T17:24:05.464Z</time></trkpt><trkpt lat="44.8372655" lon="11.364049"><ele>13.0</ele><time>2026-05-04T17:24:06.427Z</time></trkpt><trkpt lat="44.8373267" lon="11.3638913"><ele>13.25</ele><time>2026-05-04T17:24:07.458Z</time></trkpt><trkpt lat="44.8373882" lon="11.3637387"><ele>13.5</ele><time>2026-05-04T17:24:08.459Z</time></trkpt><trkpt lat="44.8374493" lon="11.3635817"><ele>13.75</ele><time>2026-05-04T17:24:09.444Z</time></trkpt><trkpt lat="44.8375038" lon="11.3634285"><ele>14.0</ele><time>2026-05-04T17:24:10.455Z</time></trkpt><trkpt lat="44.8375592" lon="11.3632828"><ele>14.0</ele><time>2026-05-04T17:24:11.436Z</time></trkpt><trkpt lat="44.8376079" lon="11.3631244"><ele>14.0</ele><time>2026-05-04T17:24:12.442Z</time></trkpt><trkpt lat="44.8376516" lon="11.3629717"><ele>14.0</ele><time>2026-05-04T17:24:13.452Z</time></trkpt><trkpt lat="44.8376954" lon="11.3628155"><ele>14.0</ele><time>2026-05-04T17:24:14.447Z</time></trkpt><trkpt lat="44.8377351" lon="11.3626623"><ele>14.25</ele><time>2026-05-04T17:24:15.447Z</time></trkpt><trkpt lat="44.8377745" lon="11.3625026"><ele>14.5</ele><time>2026-05-04T17:24:16.478Z</time></trkpt><trkpt lat="44.837813" lon="11.3623419"><ele>14.75</ele><time>2026-05-04T17:24:17.46Z</time></trkpt><trkpt lat="44.8378487" lon="11.3621826"><ele>15.0</ele><time>2026-05-04T17:24:18.466Z</time></trkpt><trkpt lat="44.8378792" lon="11.3620222"><ele>14.6</ele><time>2026-05-04T17:24:19.469Z</time></trkpt><trkpt lat="44.8379087" lon="11.3618647"><ele>14.2</ele><time>2026-05-04T17:24:20.442Z</time></trkpt><trkpt lat="44.8379305" lon="11.3617121"><ele>13.8</ele><time>2026-05-04T17:24:21.446Z</time></trkpt><trkpt lat="44.8379452" lon="11.3615708"><ele>13.4</ele><time>2026-05-04T17:24:22.44Z</time></trkpt><trkpt lat="44.8379547" lon="11.3614463"><ele>13.0</ele><time>2026-05-04T17:24:23.442Z</time></trkpt><trkpt lat="44.8379612" lon="11.3613242"><ele>12.999999999999998</ele><time>2026-05-04T17:24:24.454Z</time></trkpt><trkpt lat="44.8379626" lon="11.3612212"><ele>13.0</ele><time>2026-05-04T17:24:25.459Z</time></trkpt><trkpt lat="44.8379559" lon="11.3611279"><ele>13.0</ele><time>2026-05-04T17:24:26.441Z</time></trkpt><trkpt lat="44.8378816" lon="11.3610171"><ele>13.0</ele><time>2026-05-04T17:24:28.426Z</time></trkpt><trkpt lat="44.8378097" lon="11.3610271"><ele>12.999999999999998</ele><time>2026-05-04T17:24:29.46Z</time></trkpt><trkpt lat="44.8377309" lon="11.3610439"><ele>13.0</ele><time>2026-05-04T17:24:30.439Z</time></trkpt><trkpt lat="44.8376325" lon="11.3610535"><ele>13.2</ele><time>2026-05-04T17:24:31.438Z</time></trkpt><trkpt lat="44.8375381" lon="11.361016"><ele>13.4</ele><time>2026-05-04T17:24:32.459Z</time></trkpt><trkpt lat="44.8374453" lon="11.3609799"><ele>13.599999999999998</ele><time>2026-05-04T17:24:33.456Z</time></trkpt><trkpt lat="44.8373482" lon="11.3609308"><ele>13.799999999999999</ele><time>2026-05-04T17:24:34.45Z</time></trkpt><trkpt lat="44.8372458" lon="11.3608806"><ele>14.0</ele><time>2026-05-04T17:24:35.424Z</time></trkpt><trkpt lat="44.8371393" lon="11.3608428"><ele>14.0</ele><time>2026-05-04T17:24:36.443Z</time></trkpt><trkpt lat="44.8370281" lon="11.3607975"><ele>14.0</ele><time>2026-05-04T17:24:37.458Z</time></trkpt><trkpt lat="44.836912" lon="11.3607503"><ele>14.0</ele><time>2026-05-04T17:24:38.455Z</time></trkpt><trkpt lat="44.8367927" lon="11.3607016"><ele>14.0</ele><time>2026-05-04T17:24:39.42Z</time></trkpt><trkpt lat="44.8366726" lon="11.3606512"><ele>14.0</ele><time>2026-05-04T17:24:40.444Z</time></trkpt><trkpt lat="44.8365527" lon="11.3606032"><ele>14.0</ele><time>2026-05-04T17:24:41.437Z</time></trkpt><trkpt lat="44.836429" lon="11.3605531"><ele>14.0</ele><time>2026-05-04T17:24:42.453Z</time></trkpt><trkpt lat="44.8363008" lon="11.3605016"><ele>14.0</ele><time>2026-05-04T17:24:43.452Z</time></trkpt><trkpt lat="44.8361669" lon="11.3604415"><ele>13.75</ele><time>2026-05-04T17:24:44.464Z</time></trkpt><trkpt lat="44.8360365" lon="11.3603815"><ele>13.5</ele><time>2026-05-04T17:24:45.408Z</time></trkpt><trkpt lat="44.8359074" lon="11.3603219"><ele>13.25</ele><time>2026-05-04T17:24:46.43Z</time></trkpt><trkpt lat="44.835787" lon="11.3602716"><ele>13.0</ele><time>2026-05-04T17:24:47.454Z</time></trkpt><trkpt lat="44.835666" lon="11.3602248"><ele>12.75</ele><time>2026-05-04T17:24:48.434Z</time></trkpt><trkpt lat="44.8355509" lon="11.3601788"><ele>12.5</ele><time>2026-05-04T17:24:49.45Z</time></trkpt><trkpt lat="44.8354406" lon="11.3601335"><ele>12.25</ele><time>2026-05-04T17:24:50.448Z</time></trkpt><trkpt lat="44.8353353" lon="11.360095"><ele>12.0</ele><time>2026-05-04T17:24:51.463Z</time></trkpt><trkpt lat="44.8352284" lon="11.3600506"><ele>12.25</ele><time>2026-05-04T17:24:52.449Z</time></trkpt><trkpt lat="44.8351156" lon="11.360001"><ele>12.5</ele><time>2026-05-04T17:24:53.451Z</time></trkpt><trkpt lat="44.8350014" lon="11.359956"><ele>12.75</ele><time>2026-05-04T17:24:54.437Z</time></trkpt><trkpt lat="44.8348856" lon="11.359906"><ele>13.0</ele><time>2026-05-04T17:24:55.432Z</time></trkpt><trkpt lat="44.8347741" lon="11.3598627"><ele>13.0</ele><time>2026-05-04T17:24:56.461Z</time></trkpt><trkpt lat="44.8346618" lon="11.3598127"><ele>13.0</ele><time>2026-05-04T17:24:57.458Z</time></trkpt><trkpt lat="44.834546" lon="11.3597629"><ele>13.0</ele><time>2026-05-04T17:24:58.467Z</time></trkpt><trkpt lat="44.8344286" lon="11.3597096"><ele>13.0</ele><time>2026-05-04T17:24:59.46Z</time></trkpt><trkpt lat="44.8343066" lon="11.3596641"><ele>12.75</ele><time>2026-05-04T17:25:00.465Z</time></trkpt><trkpt lat="44.8341815" lon="11.3596184"><ele>12.5</ele><time>2026-05-04T17:25:01.463Z</time></trkpt><trkpt lat="44.8340579" lon="11.3595713"><ele>12.25</ele><time>2026-05-04T17:25:02.457Z</time></trkpt><trkpt lat="44.833938" lon="11.3595205"><ele>12.0</ele><time>2026-05-04T17:25:03.447Z</time></trkpt><trkpt lat="44.8338226" lon="11.3594658"><ele>12.0</ele><time>2026-05-04T17:25:04.443Z</time></trkpt><trkpt lat="44.833713" lon="11.3594138"><ele>12.0</ele><time>2026-05-04T17:25:05.453Z</time></trkpt><trkpt lat="44.8336089" lon="11.3593753"><ele>12.0</ele><time>2026-05-04T17:25:06.456Z</time></trkpt><trkpt lat="44.8335063" lon="11.3593339"><ele>12.0</ele><time>2026-05-04T17:25:07.454Z</time></trkpt><trkpt lat="44.8334038" lon="11.3592911"><ele>12.0</ele><time>2026-05-04T17:25:08.467Z</time></trkpt><trkpt lat="44.8333032" lon="11.3592464"><ele>12.399999999999999</ele><time>2026-05-04T17:25:09.452Z</time></trkpt><trkpt lat="44.8332036" lon="11.3592034"><ele>12.799999999999999</ele><time>2026-05-04T17:25:10.455Z</time></trkpt><trkpt lat="44.833104" lon="11.3591586"><ele>13.2</ele><time>2026-05-04T17:25:11.458Z</time></trkpt><trkpt lat="44.8330028" lon="11.3591149"><ele>13.6</ele><time>2026-05-04T17:25:12.435Z</time></trkpt><trkpt lat="44.8329022" lon="11.3590683"><ele>14.0</ele><time>2026-05-04T17:25:13.476Z</time></trkpt><trkpt lat="44.8328026" lon="11.3590241"><ele>14.0</ele><time>2026-05-04T17:25:14.477Z</time></trkpt><trkpt lat="44.832703" lon="11.3589788"><ele>13.999999999999998</ele><time>2026-05-04T17:25:15.471Z</time></trkpt><trkpt lat="44.8326026" lon="11.3589365"><ele>13.999999999999998</ele><time>2026-05-04T17:25:16.469Z</time></trkpt><trkpt lat="44.8324997" lon="11.3588916"><ele>14.0</ele><time>2026-05-04T17:25:17.458Z</time></trkpt><trkpt lat="44.8323951" lon="11.3588516"><ele>14.0</ele><time>2026-05-04T17:25:18.439Z</time></trkpt><trkpt lat="44.8322914" lon="11.358806"><ele>14.0</ele><time>2026-05-04T17:25:19.419Z</time></trkpt><trkpt lat="44.8321797" lon="11.3587574"><ele>14.0</ele><time>2026-05-04T17:25:20.482Z</time></trkpt><trkpt lat="44.8320686" lon="11.3587118"><ele>14.0</ele><time>2026-05-04T17:25:21.442Z</time></trkpt><trkpt lat="44.8319551" lon="11.3586669"><ele>14.0</ele><time>2026-05-04T17:25:22.476Z</time></trkpt><trkpt lat="44.8318409" lon="11.3586229"><ele>13.5</ele><time>2026-05-04T17:25:23.462Z</time></trkpt><trkpt lat="44.8317264" lon="11.3585757"><ele>13.0</ele><time>2026-05-04T17:25:24.446Z</time></trkpt><trkpt lat="44.8316171" lon="11.3585327"><ele>12.5</ele><time>2026-05-04T17:25:25.472Z</time></trkpt><trkpt lat="44.8315059" lon="11.358483"><ele>12.0</ele><time>2026-05-04T17:25:26.455Z</time></trkpt><trkpt lat="44.8313884" lon="11.35844"><ele>12.0</ele><time>2026-05-04T17:25:27.44Z</time></trkpt><trkpt lat="44.8312761" lon="11.3583997"><ele>12.0</ele><time>2026-05-04T17:25:28.45Z</time></trkpt><trkpt lat="44.8311612" lon="11.3583482"><ele>12.0</ele><time>2026-05-04T17:25:29.471Z</time></trkpt><trkpt lat="44.8310474" lon="11.3582982"><ele>12.0</ele><time>2026-05-04T17:25:30.462Z</time></trkpt><trkpt lat="44.8309299" lon="11.3582507"><ele>12.25</ele><time>2026-05-04T17:25:31.459Z</time></trkpt><trkpt lat="44.8308134" lon="11.3582053"><ele>12.5</ele><time>2026-05-04T17:25:32.444Z</time></trkpt><trkpt lat="44.8306975" lon="11.3581554"><ele>12.75</ele><time>2026-05-04T17:25:33.462Z</time></trkpt><trkpt lat="44.8305814" lon="11.3581032"><ele>13.0</ele><time>2026-05-04T17:25:34.446Z</time></trkpt><trkpt lat="44.8304648" lon="11.3580558"><ele>13.0</ele><time>2026-05-04T17:25:35.422Z</time></trkpt><trkpt lat="44.8303523" lon="11.3580074"><ele>13.0</ele><time>2026-05-04T17:25:36.432Z</time></trkpt><trkpt lat="44.8302412" lon="11.3579539"><ele>13.0</ele><time>2026-05-04T17:25:37.459Z</time></trkpt><trkpt lat="44.8301266" lon="11.357897"><ele>13.0</ele><time>2026-05-04T17:25:38.439Z</time></trkpt><trkpt lat="44.8300129" lon="11.3578456"><ele>13.0</ele><time>2026-05-04T17:25:39.451Z</time></trkpt><trkpt lat="44.8298956" lon="11.3577971"><ele>13.0</ele><time>2026-05-04T17:25:40.454Z</time></trkpt><trkpt lat="44.8297801" lon="11.35775"><ele>13.0</ele><time>2026-05-04T17:25:41.455Z</time></trkpt><trkpt lat="44.8296628" lon="11.3576992"><ele>13.0</ele><time>2026-05-04T17:25:42.455Z</time></trkpt><trkpt lat="44.8295421" lon="11.3576517"><ele>13.0</ele><time>2026-05-04T17:25:43.461Z</time></trkpt><trkpt lat="44.8294227" lon="11.3576061"><ele>13.0</ele><time>2026-05-04T17:25:44.461Z</time></trkpt><trkpt lat="44.8293047" lon="11.357561"><ele>13.0</ele><time>2026-05-04T17:25:45.463Z</time></trkpt><trkpt lat="44.8291857" lon="11.3575091"><ele>13.0</ele><time>2026-05-04T17:25:46.484Z</time></trkpt><trkpt lat="44.8290699" lon="11.3574558"><ele>13.0</ele><time>2026-05-04T17:25:47.468Z</time></trkpt><trkpt lat="44.8289531" lon="11.3573996"><ele>13.0</ele><time>2026-05-04T17:25:48.445Z</time></trkpt><trkpt lat="44.8288352" lon="11.3573525"><ele>13.0</ele><time>2026-05-04T17:25:49.472Z</time></trkpt><trkpt lat="44.8287166" lon="11.3573039"><ele>13.0</ele><time>2026-05-04T17:25:50.429Z</time></trkpt><trkpt lat="44.8285979" lon="11.3572565"><ele>12.75</ele><time>2026-05-04T17:25:51.452Z</time></trkpt><trkpt lat="44.828476" lon="11.3572097"><ele>12.5</ele><time>2026-05-04T17:25:52.46Z</time></trkpt><trkpt lat="44.8283598" lon="11.3571609"><ele>12.25</ele><time>2026-05-04T17:25:53.43Z</time></trkpt><trkpt lat="44.8282434" lon="11.3571115"><ele>12.0</ele><time>2026-05-04T17:25:54.469Z</time></trkpt><trkpt lat="44.8281209" lon="11.3570626"><ele>12.0</ele><time>2026-05-04T17:25:55.466Z</time></trkpt><trkpt lat="44.8280022" lon="11.3570102"><ele>12.0</ele><time>2026-05-04T17:25:56.458Z</time></trkpt><trkpt lat="44.8278863" lon="11.3569596"><ele>12.0</ele><time>2026-05-04T17:25:57.44Z</time></trkpt><trkpt lat="44.8277694" lon="11.3569102"><ele>12.0</ele><time>2026-05-04T17:25:58.456Z</time></trkpt><trkpt lat="44.8276461" lon="11.3568621"><ele>12.0</ele><time>2026-05-04T17:25:59.439Z</time></trkpt><trkpt lat="44.8275288" lon="11.3568097"><ele>12.0</ele><time>2026-05-04T17:26:00.447Z</time></trkpt><trkpt lat="44.8274072" lon="11.3567575"><ele>12.0</ele><time>2026-05-04T17:26:01.456Z</time></trkpt><trkpt lat="44.8272874" lon="11.3567077"><ele>12.0</ele><time>2026-05-04T17:26:02.458Z</time></trkpt><trkpt lat="44.8271653" lon="11.3566554"><ele>12.0</ele><time>2026-05-04T17:26:03.446Z</time></trkpt><trkpt lat="44.8270446" lon="11.3566066"><ele>12.0</ele><time>2026-05-04T17:26:04.468Z</time></trkpt><trkpt lat="44.8269184" lon="11.3565564"><ele>12.0</ele><time>2026-05-04T17:26:05.482Z</time></trkpt><trkpt lat="44.8267888" lon="11.3565083"><ele>12.0</ele><time>2026-05-04T17:26:06.456Z</time></trkpt><trkpt lat="44.8266597" lon="11.3564549"><ele>12.0</ele><time>2026-05-04T17:26:07.468Z</time></trkpt><trkpt lat="44.826526" lon="11.3563996"><ele>12.0</ele><time>2026-05-04T17:26:08.462Z</time></trkpt><trkpt lat="44.8263937" lon="11.3563415"><ele>12.0</ele><time>2026-05-04T17:26:09.468Z</time></trkpt><trkpt lat="44.8262595" lon="11.3562851"><ele>12.0</ele><time>2026-05-04T17:26:10.42Z</time></trkpt><trkpt lat="44.8261224" lon="11.3562293"><ele>11.5</ele><time>2026-05-04T17:26:11.437Z</time></trkpt><trkpt lat="44.825982" lon="11.3561705"><ele>11.0</ele><time>2026-05-04T17:26:12.435Z</time></trkpt><trkpt lat="44.8258393" lon="11.3561141"><ele>10.5</ele><time>2026-05-04T17:26:13.45Z</time></trkpt><trkpt lat="44.8256939" lon="11.3560529"><ele>10.0</ele><time>2026-05-04T17:26:14.438Z</time></trkpt><trkpt lat="44.825549" lon="11.3559903"><ele>10.0</ele><time>2026-05-04T17:26:15.435Z</time></trkpt><trkpt lat="44.8254001" lon="11.3559307"><ele>10.0</ele><time>2026-05-04T17:26:16.454Z</time></trkpt><trkpt lat="44.825249" lon="11.3558682"><ele>10.0</ele><time>2026-05-04T17:26:17.451Z</time></trkpt><trkpt lat="44.8250963" lon="11.3558017"><ele>10.333333333333334</ele><time>2026-05-04T17:26:18.438Z</time></trkpt><trkpt lat="44.8249445" lon="11.3557346"><ele>10.666666666666666</ele><time>2026-05-04T17:26:19.464Z</time></trkpt><trkpt lat="44.8247912" lon="11.3556684"><ele>11.0</ele><time>2026-05-04T17:26:20.447Z</time></trkpt><trkpt lat="44.8246368" lon="11.3556049"><ele>11.0</ele><time>2026-05-04T17:26:21.479Z</time></trkpt><trkpt lat="44.8244822" lon="11.3555416"><ele>11.0</ele><time>2026-05-04T17:26:22.456Z</time></trkpt><trkpt lat="44.8243281" lon="11.3554719"><ele>11.0</ele><time>2026-05-04T17:26:23.453Z</time></trkpt><trkpt lat="44.8241789" lon="11.3554071"><ele>11.0</ele><time>2026-05-04T17:26:24.453Z</time></trkpt><trkpt lat="44.8240377" lon="11.35535"><ele>11.0</ele><time>2026-05-04T17:26:25.451Z</time></trkpt><trkpt lat="44.8239015" lon="11.3552902"><ele>11.0</ele><time>2026-05-04T17:26:26.455Z</time></trkpt><trkpt lat="44.8237673" lon="11.3552329"><ele>11.0</ele><time>2026-05-04T17:26:27.433Z</time></trkpt><trkpt lat="44.8236399" lon="11.3551801"><ele>11.0</ele><time>2026-05-04T17:26:28.458Z</time></trkpt><trkpt lat="44.8235221" lon="11.3551304"><ele>11.0</ele><time>2026-05-04T17:26:29.431Z</time></trkpt><trkpt lat="44.8234197" lon="11.3550906"><ele>11.0</ele><time>2026-05-04T17:26:30.4Z</time></trkpt><trkpt lat="44.8233235" lon="11.3550503"><ele>11.0</ele><time>2026-05-04T17:26:31.445Z</time></trkpt><trkpt lat="44.8232409" lon="11.3550133"><ele>11.0</ele><time>2026-05-04T17:26:32.46Z</time></trkpt><trkpt lat="44.8231686" lon="11.3549853"><ele>11.166666666666666</ele><time>2026-05-04T17:26:33.46Z</time></trkpt><trkpt lat="44.8231088" lon="11.3549534"><ele>11.333333333333332</ele><time>2026-05-04T17:26:34.438Z</time></trkpt><trkpt lat="44.8230229" lon="11.3548363"><ele>11.5</ele><time>2026-05-04T17:26:36.447Z</time></trkpt><trkpt lat="44.8229882" lon="11.354754"><ele>11.666666666666666</ele><time>2026-05-04T17:26:37.459Z</time></trkpt><trkpt lat="44.822958" lon="11.3546611"><ele>11.833333333333334</ele><time>2026-05-04T17:26:38.437Z</time></trkpt><trkpt lat="44.8229295" lon="11.3545667"><ele>12.0</ele><time>2026-05-04T17:26:39.423Z</time></trkpt><trkpt lat="44.8228934" lon="11.3544807"><ele>11.333333333333334</ele><time>2026-05-04T17:26:40.474Z</time></trkpt><trkpt lat="44.8228559" lon="11.3543927"><ele>10.666666666666666</ele><time>2026-05-04T17:26:41.464Z</time></trkpt><trkpt lat="44.8228139" lon="11.3543002"><ele>10.0</ele><time>2026-05-04T17:26:42.464Z</time></trkpt><trkpt lat="44.8227721" lon="11.3541957"><ele>9.333333333333332</ele><time>2026-05-04T17:26:43.46Z</time></trkpt><trkpt lat="44.8227463" lon="11.3540708"><ele>8.666666666666666</ele><time>2026-05-04T17:26:44.417Z</time></trkpt><trkpt lat="44.8227509" lon="11.35394"><ele>8.0</ele><time>2026-05-04T17:26:45.432Z</time></trkpt><trkpt lat="44.8227736" lon="11.3538019"><ele>7.800000000000001</ele><time>2026-05-04T17:26:46.47Z</time></trkpt><trkpt lat="44.8228013" lon="11.3536644"><ele>7.6000000000000005</ele><time>2026-05-04T17:26:47.446Z</time></trkpt><trkpt lat="44.8228335" lon="11.3535198"><ele>7.3999999999999995</ele><time>2026-05-04T17:26:48.45Z</time></trkpt><trkpt lat="44.8228685" lon="11.3533673"><ele>7.199999999999999</ele><time>2026-05-04T17:26:49.464Z</time></trkpt><trkpt lat="44.8229015" lon="11.3532091"><ele>7.0</ele><time>2026-05-04T17:26:50.466Z</time></trkpt><trkpt lat="44.8229362" lon="11.353048"><ele>7.5</ele><time>2026-05-04T17:26:51.434Z</time></trkpt><trkpt lat="44.8229701" lon="11.3528834"><ele>8.0</ele><time>2026-05-04T17:26:52.419Z</time></trkpt><trkpt lat="44.8230045" lon="11.3527168"><ele>8.5</ele><time>2026-05-04T17:26:53.454Z</time></trkpt><trkpt lat="44.8230398" lon="11.3525441"><ele>9.0</ele><time>2026-05-04T17:26:54.425Z</time></trkpt><trkpt lat="44.8230767" lon="11.3523689"><ele>9.0</ele><time>2026-05-04T17:26:55.459Z</time></trkpt><trkpt lat="44.8231162" lon="11.3521913"><ele>9.0</ele><time>2026-05-04T17:26:56.457Z</time></trkpt><trkpt lat="44.8231541" lon="11.3520178"><ele>9.0</ele><time>2026-05-04T17:26:57.456Z</time></trkpt><trkpt lat="44.8231895" lon="11.3518444"><ele>9.0</ele><time>2026-05-04T17:26:58.464Z</time></trkpt><trkpt lat="44.8232265" lon="11.3516654"><ele>9.0</ele><time>2026-05-04T17:26:59.454Z</time></trkpt><trkpt lat="44.8232625" lon="11.3514942"><ele>9.0</ele><time>2026-05-04T17:27:00.426Z</time></trkpt><trkpt lat="44.8232991" lon="11.3513261"><ele>9.0</ele><time>2026-05-04T17:27:01.43Z</time></trkpt><trkpt lat="44.8233372" lon="11.3511572"><ele>9.0</ele><time>2026-05-04T17:27:02.458Z</time></trkpt><trkpt lat="44.8233711" lon="11.3509896"><ele>9.0</ele><time>2026-05-04T17:27:03.439Z</time></trkpt><trkpt lat="44.8234002" lon="11.3508164"><ele>9.0</ele><time>2026-05-04T17:27:04.456Z</time></trkpt><trkpt lat="44.8234316" lon="11.3506408"><ele>9.0</ele><time>2026-05-04T17:27:05.456Z</time></trkpt><trkpt lat="44.8234671" lon="11.3504726"><ele>9.0</ele><time>2026-05-04T17:27:06.446Z</time></trkpt><trkpt lat="44.8235015" lon="11.350301"><ele>9.0</ele><time>2026-05-04T17:27:07.47Z</time></trkpt><trkpt lat="44.8235402" lon="11.350131"><ele>9.0</ele><time>2026-05-04T17:27:08.448Z</time></trkpt><trkpt lat="44.8235777" lon="11.3499604"><ele>9.0</ele><time>2026-05-04T17:27:09.449Z</time></trkpt><trkpt lat="44.823615" lon="11.3497884"><ele>9.0</ele><time>2026-05-04T17:27:10.453Z</time></trkpt><trkpt lat="44.8236551" lon="11.3496127"><ele>8.75</ele><time>2026-05-04T17:27:11.454Z</time></trkpt><trkpt lat="44.823697" lon="11.3494355"><ele>8.5</ele><time>2026-05-04T17:27:12.448Z</time></trkpt><trkpt lat="44.8237378" lon="11.3492552"><ele>8.25</ele><time>2026-05-04T17:27:13.473Z</time></trkpt><trkpt lat="44.8237771" lon="11.3490717"><ele>8.0</ele><time>2026-05-04T17:27:14.46Z</time></trkpt><trkpt lat="44.8238172" lon="11.3488883"><ele>8.0</ele><time>2026-05-04T17:27:15.46Z</time></trkpt><trkpt lat="44.823856" lon="11.348705"><ele>8.0</ele><time>2026-05-04T17:27:16.457Z</time></trkpt><trkpt lat="44.8238938" lon="11.3485244"><ele>8.0</ele><time>2026-05-04T17:27:17.445Z</time></trkpt><trkpt lat="44.8239331" lon="11.3483492"><ele>8.0</ele><time>2026-05-04T17:27:18.455Z</time></trkpt><trkpt lat="44.8239741" lon="11.3481779"><ele>8.25</ele><time>2026-05-04T17:27:19.458Z</time></trkpt><trkpt lat="44.8240138" lon="11.348007"><ele>8.5</ele><time>2026-05-04T17:27:20.421Z</time></trkpt><trkpt lat="44.8240509" lon="11.3478373"><ele>8.75</ele><time>2026-05-04T17:27:21.478Z</time></trkpt><trkpt lat="44.8240887" lon="11.347661"><ele>9.0</ele><time>2026-05-04T17:27:22.453Z</time></trkpt><trkpt lat="44.8241273" lon="11.3474832"><ele>9.0</ele><time>2026-05-04T17:27:23.478Z</time></trkpt><trkpt lat="44.824164" lon="11.3472997"><ele>9.0</ele><time>2026-05-04T17:27:24.452Z</time></trkpt><trkpt lat="44.824201" lon="11.3471245"><ele>9.0</ele><time>2026-05-04T17:27:25.47Z</time></trkpt><trkpt lat="44.8242371" lon="11.3469486"><ele>9.0</ele><time>2026-05-04T17:27:26.444Z</time></trkpt><trkpt lat="44.8242762" lon="11.3467756"><ele>9.5</ele><time>2026-05-04T17:27:27.461Z</time></trkpt><trkpt lat="44.8243151" lon="11.3465995"><ele>10.0</ele><time>2026-05-04T17:27:28.436Z</time></trkpt><trkpt lat="44.8243528" lon="11.3464242"><ele>10.5</ele><time>2026-05-04T17:27:29.444Z</time></trkpt><trkpt lat="44.8243907" lon="11.3462521"><ele>11.0</ele><time>2026-05-04T17:27:30.448Z</time></trkpt><trkpt lat="44.8244295" lon="11.3460826"><ele>11.0</ele><time>2026-05-04T17:27:31.474Z</time></trkpt><trkpt lat="44.824468" lon="11.3459155"><ele>11.0</ele><time>2026-05-04T17:27:32.449Z</time></trkpt><trkpt lat="44.8245062" lon="11.3457521"><ele>11.0</ele><time>2026-05-04T17:27:33.427Z</time></trkpt><trkpt lat="44.8245369" lon="11.3455862"><ele>11.0</ele><time>2026-05-04T17:27:34.462Z</time></trkpt><trkpt lat="44.8245741" lon="11.3454184"><ele>11.0</ele><time>2026-05-04T17:27:35.422Z</time></trkpt><trkpt lat="44.8246098" lon="11.345253"><ele>11.0</ele><time>2026-05-04T17:27:36.462Z</time></trkpt><trkpt lat="44.8246458" lon="11.3450908"><ele>11.0</ele><time>2026-05-04T17:27:37.445Z</time></trkpt><trkpt lat="44.8246799" lon="11.3449281"><ele>11.0</ele><time>2026-05-04T17:27:38.463Z</time></trkpt><trkpt lat="44.8247143" lon="11.3447655"><ele>10.75</ele><time>2026-05-04T17:27:39.459Z</time></trkpt><trkpt lat="44.8247492" lon="11.3446002"><ele>10.5</ele><time>2026-05-04T17:27:40.451Z</time></trkpt><trkpt lat="44.8247839" lon="11.3444418"><ele>10.25</ele><time>2026-05-04T17:27:41.453Z</time></trkpt><trkpt lat="44.8248213" lon="11.3442916"><ele>10.0</ele><time>2026-05-04T17:27:42.432Z</time></trkpt><trkpt lat="44.8248557" lon="11.3441443"><ele>10.0</ele><time>2026-05-04T17:27:43.471Z</time></trkpt><trkpt lat="44.8248878" lon="11.3440047"><ele>10.0</ele><time>2026-05-04T17:27:44.45Z</time></trkpt><trkpt lat="44.8249201" lon="11.3438713"><ele>10.0</ele><time>2026-05-04T17:27:45.434Z</time></trkpt><trkpt lat="44.8249447" lon="11.3437544"><ele>10.0</ele><time>2026-05-04T17:27:46.462Z</time></trkpt><trkpt lat="44.8249712" lon="11.3436469"><ele>10.0</ele><time>2026-05-04T17:27:47.45Z</time></trkpt><trkpt lat="44.8250002" lon="11.3435461"><ele>10.0</ele><time>2026-05-04T17:27:48.439Z</time></trkpt><trkpt lat="44.8250247" lon="11.3434423"><ele>10.0</ele><time>2026-05-04T17:27:49.467Z</time></trkpt><trkpt lat="44.8250423" lon="11.3433322"><ele>10.0</ele><time>2026-05-04T17:27:50.469Z</time></trkpt><trkpt lat="44.8250641" lon="11.3432228"><ele>10.0</ele><time>2026-05-04T17:27:51.466Z</time></trkpt><trkpt lat="44.8250909" lon="11.3431133"><ele>10.0</ele><time>2026-05-04T17:27:52.462Z</time></trkpt><trkpt lat="44.8251115" lon="11.3430068"><ele>10.0</ele><time>2026-05-04T17:27:53.456Z</time></trkpt><trkpt lat="44.8251309" lon="11.3429044"><ele>10.0</ele><time>2026-05-04T17:27:54.452Z</time></trkpt><trkpt lat="44.8251487" lon="11.3428128"><ele>10.0</ele><time>2026-05-04T17:27:55.467Z</time></trkpt><trkpt lat="44.825177" lon="11.3426774"><ele>10.0</ele><time>2026-05-04T17:27:57.457Z</time></trkpt><trkpt lat="44.8251846" lon="11.3425614"><ele>10.0</ele><time>2026-05-04T17:28:00.438Z</time></trkpt><trkpt lat="44.8251317" lon="11.342503"><ele>10.0</ele><time>2026-05-04T17:28:03.41Z</time></trkpt><trkpt lat="44.8250533" lon="11.3424862"><ele>10.0</ele><time>2026-05-04T17:28:06.467Z</time></trkpt><trkpt lat="44.8250098" lon="11.3425746"><ele>10.0</ele><time>2026-05-04T17:28:09.431Z</time></trkpt><trkpt lat="44.8249855" lon="11.3426717"><ele>10.0</ele><time>2026-05-04T17:28:12.457Z</time></trkpt><trkpt lat="44.8249487" lon="11.3427447"><ele>10.0</ele><time>2026-05-04T17:28:23.416Z</time></trkpt></trkseg></trk></gpx>